Wetterdaten: Samstag, 19.10.2019
Datum Zeit Temp. Aussen Temp. o. S. Temp +5cm Feuchte Auss Luftdruck Regen Sonnenschein Regendauer Solar Windben Empfang
19.10.2019 00:00 10,9 C 10,0 C 10,0 C 86 % 1008,2 hPa 0,0 l/m 0 min 0 min 0 W/m 12,9 km/h (3 Bft) 97,87 %
19.10.2019 00:02 10,9 C 10,0 C 10,0 C 86 % 1008,2 hPa 0,0 l/m 0 min 0 min 0 W/m 19,3 km/h (3 Bft) 97,67 %
19.10.2019 00:04 10,9 C 10,0 C 10,0 C 86 % 1008,3 hPa 0,0 l/m 0 min 0 min 0 W/m 12,9 km/h (3 Bft) 95,74 %
19.10.2019 00:08 11,0 C 10,0 C 10,0 C 86 % 1008,2 hPa 0,0 l/m 0 min 0 min 0 W/m 16,1 km/h (3 Bft) 96,81 %
19.10.2019 00:10 10,9 C 10,0 C 10,0 C 86 % 1008,2 hPa 0,0 l/m 0 min 0 min 0 W/m 16,1 km/h (3 Bft) 95,74 %
19.10.2019 00:12 11,0 C 10,6 C 10,0 C 86 % 1008,2 hPa 0,0 l/m 0 min 0 min 0 W/m 16,1 km/h (3 Bft) 97,87 %
19.10.2019 00:14 11,0 C 10,6 C 10,0 C 86 % 1008,1 hPa 0,0 l/m 0 min 0 min 0 W/m 16,1 km/h (3 Bft) 97,83 %
19.10.2019 00:16 11,0 C 10,6 C 10,0 C 86 % 1008,2 hPa 0,0 l/m 0 min 0 min 0 W/m 12,9 km/h (3 Bft) 97,87 %
19.10.2019 00:18 11,0 C 10,6 C 10,0 C 86 % 1008,1 hPa 0,0 l/m 0 min 0 min 0 W/m 12,9 km/h (3 Bft) 97,87 %
19.10.2019 00:20 11,0 C 10,6 C 10,0 C 86 % 1008,1 hPa 0,0 l/m 0 min 0 min 0 W/m 16,1 km/h (3 Bft) 100,00 %
19.10.2019 00:22 11,0 C 10,6 C 10,0 C 86 % 1008,1 hPa 0,0 l/m 0 min 0 min 0 W/m 19,3 km/h (3 Bft) 100,00 %
19.10.2019 00:24 11,0 C 10,6 C 10,0 C 86 % 1008,0 hPa 0,0 l/m 0 min 0 min 0 W/m 12,9 km/h (3 Bft) 100,00 %
19.10.2019 00:26 11,0 C 10,0 C 10,0 C 86 % 1008,0 hPa 0,0 l/m 0 min 0 min 0 W/m 12,9 km/h (3 Bft) 100,00 %
19.10.2019 00:28 11,0 C 10,0 C 10,0 C 86 % 1008,0 hPa 0,0 l/m 0 min 0 min 0 W/m 6,4 km/h (2 Bft) 100,00 %
19.10.2019 00:30 11,0 C 10,0 C 10,0 C 86 % 1008,0 hPa 0,0 l/m 0 min 0 min 0 W/m 19,3 km/h (3 Bft) 97,87 %
19.10.2019 00:32 11,0 C 10,0 C 10,0 C 86 % 1008,0 hPa 0,0 l/m 0 min 0 min 0 W/m 16,1 km/h (3 Bft) 100,00 %
19.10.2019 00:34 11,0 C 10,0 C 10,0 C 86 % 1007,9 hPa 0,0 l/m 0 min 0 min 0 W/m 12,9 km/h (3 Bft) 97,87 %
19.10.2019 00:36 11,1 C 10,0 C 10,0 C 86 % 1007,9 hPa 0,0 l/m 0 min 0 min 0 W/m 12,9 km/h (3 Bft) 100,00 %
19.10.2019 00:38 11,0 C 10,0 C 10,0 C 86 % 1008,0 hPa 0,0 l/m 0 min 0 min 0 W/m 12,9 km/h (3 Bft) 100,00 %
19.10.2019 00:40 11,0 C 10,0 C 10,0 C 86 % 1007,9 hPa 0,0 l/m 0 min 0 min 0 W/m 12,9 km/h (3 Bft) 100,00 %
19.10.2019 00:42 11,1 C 10,0 C 10,0 C 86 % 1007,9 hPa 0,0 l/m 0 min 0 min 0 W/m 16,1 km/h (3 Bft) 100,00 %
19.10.2019 00:44 11,1 C 10,0 C 10,0 C 86 % 1008,0 hPa 0,0 l/m 0 min 0 min 0 W/m 12,9 km/h (3 Bft) 97,87 %
19.10.2019 00:46 11,1 C 10,0 C 10,0 C 86 % 1008,0 hPa 0,0 l/m 0 min 0 min 0 W/m 16,1 km/h (3 Bft) 97,87 %
19.10.2019 00:48 11,1 C 10,0 C 10,0 C 86 % 1008,0 hPa 0,0 l/m 0 min 0 min 0 W/m 12,9 km/h (3 Bft) 97,83 %
19.10.2019 00:50 11,1 C 10,0 C 9,4 C 86 % 1008,1 hPa 0,0 l/m 0 min 0 min 0 W/m 16,1 km/h (3 Bft) 97,87 %
19.10.2019 00:52 11,1 C 10,0 C 10,0 C 86 % 1008,0 hPa 0,0 l/m 0 min 0 min 0 W/m 12,9 km/h (3 Bft) 95,74 %
19.10.2019 00:54 11,1 C 10,0 C 10,0 C 86 % 1008,0 hPa 0,0 l/m 0 min 0 min 0 W/m 16,1 km/h (3 Bft) 97,87 %
19.10.2019 00:56 11,1 C 10,0 C 10,0 C 86 % 1008,0 hPa 0,0 l/m 0 min 0 min 0 W/m 16,1 km/h (3 Bft) 95,74 %
19.10.2019 00:58 11,1 C 10,0 C 10,0 C 86 % 1008,0 hPa 0,0 l/m 0 min 0 min 0 W/m 12,9 km/h (3 Bft) 95,74 %
19.10.2019 01:00 11,1 C 10,0 C 10,0 C 86 % 1008,0 hPa 0,0 l/m 0 min 0 min 0 W/m 12,9 km/h (3 Bft) 97,83 %
19.10.2019 01:02 11,0 C 10,0 C 9,4 C 86 % 1007,9 hPa 0,0 l/m 0 min 0 min 0 W/m 16,1 km/h (3 Bft) 97,87 %
19.10.2019 01:04 11,0 C 10,0 C 10,0 C 86 % 1007,9 hPa 0,0 l/m 0 min 0 min 0 W/m 16,1 km/h (3 Bft) 97,87 %
19.10.2019 01:06 11,0 C 10,0 C 10,0 C 86 % 1007,9 hPa 0,0 l/m 0 min 0 min 0 W/m 12,9 km/h (3 Bft) 95,74 %
19.10.2019 01:08 11,0 C 10,0 C 10,0 C 86 % 1007,9 hPa 0,0 l/m 0 min 0 min 0 W/m 16,1 km/h (3 Bft) 95,74 %
19.10.2019 01:10 11,0 C 10,0 C 9,4 C 86 % 1007,9 hPa 0,0 l/m 0 min 0 min 0 W/m 12,9 km/h (3 Bft) 95,74 %
19.10.2019 01:12 11,0 C 10,0 C 9,4 C 86 % 1007,8 hPa 0,0 l/m 0 min 0 min 0 W/m 16,1 km/h (3 Bft) 97,83 %
19.10.2019 01:14 11,0 C 10,0 C 9,4 C 86 % 1007,9 hPa 0,0 l/m 0 min 0 min 0 W/m 12,9 km/h (3 Bft) 95,74 %
19.10.2019 01:16 11,0 C 10,0 C 9,4 C 86 % 1007,9 hPa 0,0 l/m 0 min 0 min 0 W/m 6,4 km/h (2 Bft) 91,49 %
19.10.2019 01:18 11,0 C 10,0 C 9,4 C 87 % 1007,9 hPa 0,0 l/m 0 min 0 min 0 W/m 12,9 km/h (3 Bft) 95,74 %
19.10.2019 01:20 11,0 C 10,0 C 9,4 C 87 % 1007,9 hPa 0,0 l/m 0 min 0 min 0 W/m 16,1 km/h (3 Bft) 95,74 %
19.10.2019 01:22 11,0 C 10,0 C 9,4 C 87 % 1007,8 hPa 0,0 l/m 0 min 0 min 0 W/m 16,1 km/h (3 Bft) 95,74 %
19.10.2019 01:24 10,9 C 10,0 C 9,4 C 87 % 1007,8 hPa 0,0 l/m 0 min 0 min 0 W/m 16,1 km/h (3 Bft) 95,65 %
19.10.2019 01:26 10,9 C 10,0 C 9,4 C 87 % 1007,8 hPa 0,0 l/m 0 min 0 min 0 W/m 12,9 km/h (3 Bft) 95,74 %
19.10.2019 01:28 10,9 C 9,4 C 9,4 C 87 % 1007,8 hPa 0,0 l/m 0 min 0 min 0 W/m 12,9 km/h (3 Bft) 93,62 %
19.10.2019 01:30 10,9 C 9,4 C 9,4 C 87 % 1007,8 hPa 0,0 l/m 0 min 0 min 0 W/m 12,9 km/h (3 Bft) 95,74 %
19.10.2019 01:32 10,9 C 9,4 C 9,4 C 87 % 1007,9 hPa 0,0 l/m 0 min 0 min 0 W/m 12,9 km/h (3 Bft) 95,74 %
19.10.2019 01:34 10,8 C 9,4 C 9,4 C 87 % 1007,9 hPa 0,0 l/m 0 min 0 min 0 W/m 16,1 km/h (3 Bft) 95,65 %
19.10.2019 01:36 10,8 C 9,4 C 9,4 C 87 % 1007,9 hPa 0,0 l/m 0 min 0 min 0 W/m 12,9 km/h (3 Bft) 95,74 %
19.10.2019 01:38 10,8 C 9,4 C 9,4 C 87 % 1007,9 hPa 0,0 l/m 0 min 0 min 0 W/m 16,1 km/h (3 Bft) 95,74 %
19.10.2019 01:40 10,8 C 9,4 C 9,4 C 87 % 1008,0 hPa 0,0 l/m 0 min 0 min 0 W/m 12,9 km/h (3 Bft) 95,74 %
19.10.2019 01:42 10,8 C 9,4 C 9,4 C 87 % 1008,0 hPa 0,0 l/m 0 min 0 min 0 W/m 12,9 km/h (3 Bft) 95,74 %
19.10.2019 01:44 10,7 C 9,4 C 9,4 C 87 % 1008,0 hPa 0,0 l/m 0 min 0 min 0 W/m 16,1 km/h (3 Bft) 55,56 %
19.10.2019 01:46 10,7 C 9,4 C 9,4 C 87 % 1008,0 hPa 0,0 l/m 0 min 0 min 0 W/m 16,1 km/h (3 Bft) 97,83 %
19.10.2019 01:48 10,7 C 9,4 C 9,4 C 88 % 1007,9 hPa 0,0 l/m 0 min 0 min 0 W/m 16,1 km/h (3 Bft) 95,74 %
19.10.2019 01:50 10,7 C 9,4 C 9,4 C 88 % 1007,9 hPa 0,0 l/m 0 min 0 min 0 W/m 16,1 km/h (3 Bft) 97,87 %
19.10.2019 01:52 10,7 C 9,4 C 9,4 C 88 % 1007,9 hPa 0,0 l/m 0 min 0 min 0 W/m 12,9 km/h (3 Bft) 97,87 %
19.10.2019 01:54 10,6 C 9,4 C 9,4 C 88 % 1007,8 hPa 0,0 l/m 0 min 0 min 0 W/m 19,3 km/h (3 Bft) 97,87 %
19.10.2019 01:56 10,6 C 9,4 C 9,4 C 88 % 1007,8 hPa 0,0 l/m 0 min 0 min 0 W/m 16,1 km/h (3 Bft) 97,87 %
19.10.2019 01:58 10,6 C 9,4 C 9,4 C 88 % 1007,8 hPa 0,0 l/m 0 min 0 min 0 W/m 6,4 km/h (2 Bft) 97,83 %
19.10.2019 02:00 10,6 C 9,4 C 9,4 C 88 % 1007,8 hPa 0,0 l/m 0 min 0 min 0 W/m 12,9 km/h (3 Bft) 100,00 %
19.10.2019 02:02 10,6 C 9,4 C 9,4 C 88 % 1007,7 hPa 0,0 l/m 0 min 0 min 0 W/m 19,3 km/h (3 Bft) 100,00 %
19.10.2019 02:04 10,6 C 9,4 C 9,4 C 88 % 1007,7 hPa 0,0 l/m 0 min 0 min 0 W/m 16,1 km/h (3 Bft) 100,00 %
19.10.2019 02:06 10,6 C 9,4 C 9,4 C 88 % 1007,7 hPa 0,0 l/m 0 min 0 min 0 W/m 12,9 km/h (3 Bft) 100,00 %
19.10.2019 02:08 10,6 C 9,4 C 9,4 C 88 % 1007,7 hPa 0,0 l/m 0 min 0 min 0 W/m 16,1 km/h (3 Bft) 100,00 %
19.10.2019 02:10 10,6 C 9,4 C 9,4 C 88 % 1007,6 hPa 0,0 l/m 0 min 0 min 0 W/m 16,1 km/h (3 Bft) 100,00 %
19.10.2019 02:12 10,5 C 9,4 C 9,4 C 88 % 1007,7 hPa 0,0 l/m 0 min 0 min 0 W/m 12,9 km/h (3 Bft) 100,00 %
19.10.2019 02:14 10,5 C 9,4 C 9,4 C 89 % 1007,6 hPa 0,0 l/m 0 min 0 min 0 W/m 12,9 km/h (3 Bft) 100,00 %
19.10.2019 02:16 10,5 C 9,4 C 9,4 C 89 % 1007,6 hPa 0,0 l/m 0 min 0 min 0 W/m 16,1 km/h (3 Bft) 97,87 %
19.10.2019 02:18 10,5 C 9,4 C 9,4 C 89 % 1007,6 hPa 0,0 l/m 0 min 0 min 0 W/m 6,4 km/h (2 Bft) 97,87 %
19.10.2019 02:20 10,5 C 9,4 C 9,4 C 89 % 1007,6 hPa 0,0 l/m 0 min 0 min 0 W/m 12,9 km/h (3 Bft) 97,87 %
19.10.2019 02:22 10,5 C 10,0 C 9,4 C 89 % 1007,5 hPa 0,0 l/m 0 min 0 min 0 W/m 16,1 km/h (3 Bft) 97,83 %
19.10.2019 02:24 10,5 C 10,0 C 9,4 C 89 % 1007,5 hPa 0,0 l/m 0 min 0 min 0 W/m 12,9 km/h (3 Bft) 95,74 %
19.10.2019 02:26 10,5 C 10,0 C 9,4 C 89 % 1007,5 hPa 0,0 l/m 0 min 0 min 0 W/m 19,3 km/h (3 Bft) 97,87 %
19.10.2019 02:28 10,5 C 10,0 C 9,4 C 89 % 1007,5 hPa 0,0 l/m 0 min 0 min 0 W/m 16,1 km/h (3 Bft) 97,87 %
19.10.2019 02:30 10,5 C 10,0 C 9,4 C 89 % 1007,5 hPa 0,0 l/m 0 min 0 min 0 W/m 16,1 km/h (3 Bft) 97,87 %
19.10.2019 02:32 10,5 C 10,0 C 9,4 C 89 % 1007,5 hPa 0,0 l/m 0 min 0 min 0 W/m 22,5 km/h (4 Bft) 97,83 %
19.10.2019 02:34 10,6 C 10,0 C 9,4 C 89 % 1007,5 hPa 0,0 l/m 0 min 0 min 0 W/m 19,3 km/h (3 Bft) 97,87 %
19.10.2019 02:36 10,5 C 10,0 C 9,4 C 89 % 1007,4 hPa 0,0 l/m 0 min 0 min 0 W/m 19,3 km/h (3 Bft) 97,87 %
19.10.2019 02:38 10,6 C 10,0 C 9,4 C 89 % 1007,4 hPa 0,0 l/m 0 min 0 min 0 W/m 22,5 km/h (4 Bft) 97,87 %
19.10.2019 02:40 10,6 C 10,0 C 9,4 C 89 % 1007,4 hPa 0,0 l/m 0 min 0 min 0 W/m 16,1 km/h (3 Bft) 95,74 %
19.10.2019 02:42 10,6 C 10,0 C 9,4 C 89 % 1007,4 hPa 0,0 l/m 0 min 0 min 0 W/m 6,4 km/h (2 Bft) 93,62 %
19.10.2019 02:44 10,6 C 10,0 C 9,4 C 89 % 1007,4 hPa 0,0 l/m 0 min 0 min 0 W/m 16,1 km/h (3 Bft) 97,83 %
19.10.2019 02:46 10,6 C 10,0 C 9,4 C 89 % 1007,4 hPa 0,0 l/m 0 min 0 min 0 W/m 16,1 km/h (3 Bft) 97,87 %
19.10.2019 02:48 10,6 C 10,0 C 9,4 C 89 % 1007,3 hPa 0,0 l/m 0 min 0 min 0 W/m 12,9 km/h (3 Bft) 95,74 %
19.10.2019 02:50 10,6 C 10,0 C 9,4 C 89 % 1007,3 hPa 0,0 l/m 0 min 0 min 0 W/m 16,1 km/h (3 Bft) 97,87 %
19.10.2019 02:52 10,6 C 10,0 C 9,4 C 89 % 1007,3 hPa 0,0 l/m 0 min 0 min 0 W/m 12,9 km/h (3 Bft) 97,87 %
19.10.2019 02:54 10,6 C 10,0 C 9,4 C 89 % 1007,2 hPa 0,0 l/m 0 min 0 min 0 W/m 19,3 km/h (3 Bft) 97,87 %
19.10.2019 02:56 10,6 C 10,0 C 9,4 C 89 % 1007,3 hPa 0,0 l/m 0 min 0 min 0 W/m 16,1 km/h (3 Bft) 97,83 %
19.10.2019 02:58 10,7 C 10,0 C 9,4 C 89 % 1007,2 hPa 0,0 l/m 0 min 0 min 0 W/m 19,3 km/h (3 Bft) 95,74 %
19.10.2019 03:00 10,7 C 10,0 C 9,4 C 89 % 1007,2 hPa 0,0 l/m 0 min 0 min 0 W/m 16,1 km/h (3 Bft) 97,87 %
19.10.2019 03:02 10,7 C 10,0 C 9,4 C 89 % 1007,2 hPa 0,0 l/m 0 min 0 min 0 W/m 19,3 km/h (3 Bft) 95,74 %
19.10.2019 03:04 10,7 C 10,0 C 9,4 C 89 % 1007,2 hPa 0,0 l/m 0 min 0 min 0 W/m 16,1 km/h (3 Bft) 97,87 %
19.10.2019 03:06 10,7 C 10,0 C 9,4 C 89 % 1007,2 hPa 0,0 l/m 0 min 0 min 0 W/m 16,1 km/h (3 Bft) 100,00 %
19.10.2019 03:08 10,7 C 10,0 C 9,4 C 89 % 1007,1 hPa 0,0 l/m 0 min 0 min 0 W/m 12,9 km/h (3 Bft) 100,00 %
19.10.2019 03:10 10,7 C 10,0 C 9,4 C 89 % 1007,1 hPa 0,0 l/m 0 min 0 min 0 W/m 16,1 km/h (3 Bft) 100,00 %
19.10.2019 03:12 10,7 C 10,0 C 9,4 C 89 % 1007,0 hPa 0,0 l/m 0 min 0 min 0 W/m 19,3 km/h (3 Bft) 100,00 %
19.10.2019 03:14 10,7 C 10,0 C 9,4 C 89 % 1007,0 hPa 0,0 l/m 0 min 0 min 0 W/m 19,3 km/h (3 Bft) 100,00 %
19.10.2019 03:16 10,7 C 10,0 C 10,0 C 89 % 1007,0 hPa 0,0 l/m 0 min 0 min 0 W/m 19,3 km/h (3 Bft) 100,00 %
19.10.2019 03:18 10,8 C 10,0 C 9,4 C 89 % 1007,0 hPa 0,0 l/m 0 min 0 min 0 W/m 16,1 km/h (3 Bft) 100,00 %
19.10.2019 03:20 10,8 C 10,0 C 9,4 C 89 % 1006,9 hPa 0,0 l/m 0 min 0 min 0 W/m 16,1 km/h (3 Bft) 100,00 %
19.10.2019 03:22 10,8 C 10,0 C 9,4 C 89 % 1006,9 hPa 0,0 l/m 0 min 0 min 0 W/m 16,1 km/h (3 Bft) 100,00 %
19.10.2019 03:24 10,8 C 10,0 C 9,4 C 89 % 1006,9 hPa 0,0 l/m 0 min 0 min 0 W/m 12,9 km/h (3 Bft) 100,00 %
19.10.2019 03:26 10,8 C 10,0 C 9,4 C 89 % 1006,8 hPa 0,0 l/m 0 min 0 min 0 W/m 12,9 km/h (3 Bft) 100,00 %
19.10.2019 03:28 10,8 C 10,0 C 9,4 C 89 % 1006,8 hPa 0,0 l/m 0 min 0 min 0 W/m 12,9 km/h (3 Bft) 100,00 %
19.10.2019 03:30 10,8 C 10,0 C 9,4 C 89 % 1006,7 hPa 0,0 l/m 0 min 0 min 0 W/m 12,9 km/h (3 Bft) 100,00 %
19.10.2019 03:32 10,8 C 10,0 C 9,4 C 89 % 1006,7 hPa 0,0 l/m 0 min 0 min 0 W/m 12,9 km/h (3 Bft) 100,00 %
19.10.2019 03:34 10,8 C 10,0 C 9,4 C 89 % 1006,6 hPa 0,0 l/m 0 min 0 min 0 W/m 12,9 km/h (3 Bft) 100,00 %
19.10.2019 03:36 10,8 C 10,0 C 9,4 C 89 % 1006,7 hPa 0,0 l/m 0 min 0 min 0 W/m 19,3 km/h (3 Bft) 97,87 %
19.10.2019 03:38 10,8 C 10,0 C 9,4 C 89 % 1006,7 hPa 0,0 l/m 0 min 0 min 0 W/m 16,1 km/h (3 Bft) 100,00 %
19.10.2019 03:40 10,8 C 10,0 C 9,4 C 89 % 1006,8 hPa 0,0 l/m 0 min 0 min 0 W/m 16,1 km/h (3 Bft) 100,00 %
19.10.2019 03:42 10,8 C 10,0 C 9,4 C 89 % 1006,8 hPa 0,0 l/m 0 min 0 min 0 W/m 16,1 km/h (3 Bft) 97,87 %
19.10.2019 03:44 10,8 C 10,0 C 9,4 C 89 % 1006,9 hPa 0,0 l/m 0 min 0 min 0 W/m 16,1 km/h (3 Bft) 100,00 %
19.10.2019 03:46 10,8 C 10,0 C 9,4 C 89 % 1006,9 hPa 0,0 l/m 0 min 0 min 0 W/m 12,9 km/h (3 Bft) 100,00 %
19.10.2019 03:48 10,8 C 10,0 C 9,4 C 89 % 1006,9 hPa 0,0 l/m 0 min 0 min 0 W/m 16,1 km/h (3 Bft) 100,00 %
19.10.2019 03:50 10,8 C 10,0 C 9,4 C 89 % 1006,9 hPa 0,0 l/m 0 min 0 min 0 W/m 16,1 km/h (3 Bft) 100,00 %
19.10.2019 03:52 10,8 C 10,0 C 10,0 C 89 % 1006,8 hPa 0,0 l/m 0 min 0 min 0 W/m 16,1 km/h (3 Bft) 97,87 %
19.10.2019 03:54 10,8 C 10,0 C 10,0 C 89 % 1006,8 hPa 0,0 l/m 0 min 0 min 0 W/m 12,9 km/h (3 Bft) 97,83 %
19.10.2019 03:56 10,8 C 10,0 C 9,4 C 89 % 1006,8 hPa 0,0 l/m 0 min 0 min 0 W/m 16,1 km/h (3 Bft) 100,00 %
19.10.2019 03:58 10,8 C 10,0 C 9,4 C 89 % 1006,8 hPa 0,0 l/m 0 min 0 min 0 W/m 22,5 km/h (4 Bft) 100,00 %
19.10.2019 04:00 10,9 C 10,0 C 9,4 C 89 % 1006,8 hPa 0,0 l/m 0 min 0 min 0 W/m 12,9 km/h (3 Bft) 97,87 %
19.10.2019 04:02 10,9 C 10,0 C 9,4 C 89 % 1006,8 hPa 0,0 l/m 0 min 0 min 0 W/m 16,1 km/h (3 Bft) 85,71 %
19.10.2019 04:04 10,9 C 10,0 C 9,4 C 89 % 1006,7 hPa 0,0 l/m 0 min 0 min 0 W/m 16,1 km/h (3 Bft) 97,87 %
19.10.2019 04:06 10,9 C 10,0 C 10,0 C 89 % 1006,8 hPa 0,0 l/m 0 min 0 min 0 W/m 19,3 km/h (3 Bft) 97,83 %
19.10.2019 04:08 10,9 C 10,0 C 9,4 C 89 % 1006,8 hPa 0,0 l/m 0 min 0 min 0 W/m 12,9 km/h (3 Bft) 97,87 %
19.10.2019 04:10 10,9 C 10,0 C 10,0 C 89 % 1006,8 hPa 0,0 l/m 0 min 0 min 0 W/m 12,9 km/h (3 Bft) 97,87 %
19.10.2019 04:12 10,9 C 10,6 C 10,0 C 89 % 1006,8 hPa 0,0 l/m 0 min 0 min 0 W/m 22,5 km/h (4 Bft) 95,74 %
19.10.2019 04:14 10,9 C 10,6 C 10,0 C 89 % 1006,8 hPa 0,0 l/m 0 min 0 min 0 W/m 19,3 km/h (3 Bft) 97,87 %
19.10.2019 04:16 10,9 C 10,6 C 10,0 C 89 % 1006,8 hPa 0,0 l/m 0 min 0 min 0 W/m 22,5 km/h (4 Bft) 97,87 %
19.10.2019 04:18 11,0 C 10,6 C 10,0 C 89 % 1006,8 hPa 0,0 l/m 0 min 0 min 0 W/m 19,3 km/h (3 Bft) 97,83 %
19.10.2019 04:20 11,0 C 10,6 C 10,0 C 89 % 1006,8 hPa 0,0 l/m 0 min 0 min 0 W/m 16,1 km/h (3 Bft) 95,74 %
19.10.2019 04:22 11,0 C 10,6 C 10,0 C 89 % 1006,7 hPa 0,0 l/m 0 min 0 min 0 W/m 16,1 km/h (3 Bft) 95,74 %
19.10.2019 04:24 11,1 C 10,6 C 10,0 C 89 % 1006,7 hPa 0,0 l/m 0 min 0 min 0 W/m 16,1 km/h (3 Bft) 95,74 %
19.10.2019 04:26 11,1 C 10,6 C 10,0 C 89 % 1006,8 hPa 0,0 l/m 0 min 0 min 0 W/m 16,1 km/h (3 Bft) 97,87 %
19.10.2019 04:28 11,1 C 10,6 C 10,0 C 89 % 1006,7 hPa 0,0 l/m 0 min 0 min 0 W/m 16,1 km/h (3 Bft) 95,65 %
19.10.2019 04:30 11,1 C 10,6 C 10,0 C 89 % 1006,7 hPa 0,0 l/m 0 min 0 min 0 W/m 16,1 km/h (3 Bft) 95,74 %
19.10.2019 04:32 11,1 C 10,6 C 10,0 C 89 % 1006,8 hPa 0,0 l/m 0 min 0 min 0 W/m 16,1 km/h (3 Bft) 93,62 %
19.10.2019 04:34 11,1 C 10,6 C 10,0 C 89 % 1006,8 hPa 0,0 l/m 0 min 0 min 0 W/m 19,3 km/h (3 Bft) 93,62 %
19.10.2019 04:36 11,2 C 10,6 C 10,0 C 89 % 1006,7 hPa 0,0 l/m 0 min 0 min 0 W/m 16,1 km/h (3 Bft) 95,74 %
19.10.2019 04:38 11,2 C 10,6 C 10,0 C 89 % 1006,7 hPa 0,0 l/m 0 min 0 min 0 W/m 22,5 km/h (4 Bft) 95,74 %
19.10.2019 04:40 11,2 C 10,6 C 10,0 C 89 % 1006,7 hPa 0,0 l/m 0 min 0 min 0 W/m 19,3 km/h (3 Bft) 95,65 %
19.10.2019 04:42 11,2 C 10,6 C 10,0 C 89 % 1006,7 hPa 0,0 l/m 0 min 0 min 0 W/m 12,9 km/h (3 Bft) 95,74 %
19.10.2019 04:44 11,2 C 10,6 C 10,0 C 89 % 1006,7 hPa 0,0 l/m 0 min 0 min 0 W/m 19,3 km/h (3 Bft) 95,74 %
19.10.2019 04:46 11,2 C 10,6 C 10,0 C 89 % 1006,6 hPa 0,0 l/m 0 min 0 min 0 W/m 19,3 km/h (3 Bft) 95,74 %
19.10.2019 04:48 11,2 C 10,6 C 10,0 C 89 % 1006,6 hPa 0,0 l/m 0 min 0 min 0 W/m 19,3 km/h (3 Bft) 95,74 %
19.10.2019 04:50 11,2 C 10,6 C 10,0 C 89 % 1006,6 hPa 0,0 l/m 0 min 0 min 0 W/m 16,1 km/h (3 Bft) 95,74 %
19.10.2019 04:52 11,2 C 10,6 C 10,0 C 89 % 1006,5 hPa 0,0 l/m 0 min 0 min 0 W/m 12,9 km/h (3 Bft) 95,65 %
19.10.2019 04:54 11,3 C 10,6 C 10,0 C 89 % 1006,5 hPa 0,0 l/m 0 min 0 min 0 W/m 16,1 km/h (3 Bft) 100,00 %
19.10.2019 04:56 11,3 C 10,6 C 10,0 C 89 % 1006,6 hPa 0,0 l/m 0 min 0 min 0 W/m 16,1 km/h (3 Bft) 100,00 %
19.10.2019 04:58 11,3 C 10,6 C 10,0 C 89 % 1006,5 hPa 0,0 l/m 0 min 0 min 0 W/m 19,3 km/h (3 Bft) 97,87 %
19.10.2019 05:00 11,3 C 10,6 C 10,0 C 89 % 1006,6 hPa 0,0 l/m 0 min 0 min 0 W/m 32,2 km/h (5 Bft) 97,87 %
19.10.2019 05:02 11,3 C 10,6 C 10,0 C 89 % 1006,6 hPa 0,0 l/m 0 min 0 min 0 W/m 25,7 km/h (4 Bft) 95,74 %
19.10.2019 05:04 11,3 C 10,6 C 10,0 C 89 % 1006,5 hPa 0,0 l/m 0 min 0 min 0 W/m 19,3 km/h (3 Bft) 93,48 %
19.10.2019 05:06 11,3 C 10,6 C 10,0 C 89 % 1006,5 hPa 0,0 l/m 0 min 0 min 0 W/m 19,3 km/h (3 Bft) 95,74 %
19.10.2019 05:08 11,3 C 10,6 C 10,0 C 89 % 1006,5 hPa 0,0 l/m 0 min 0 min 0 W/m 22,5 km/h (4 Bft) 95,74 %
19.10.2019 05:10 11,3 C 10,6 C 10,0 C 89 % 1006,4 hPa 0,0 l/m 0 min 0 min 0 W/m 19,3 km/h (3 Bft) 93,62 %
19.10.2019 05:12 11,3 C 10,6 C 10,0 C 89 % 1006,4 hPa 0,0 l/m 0 min 0 min 0 W/m 19,3 km/h (3 Bft) 95,74 %
19.10.2019 05:14 11,4 C 10,6 C 10,0 C 89 % 1006,4 hPa 0,0 l/m 0 min 0 min 0 W/m 19,3 km/h (3 Bft) 95,74 %
19.10.2019 05:16 11,4 C 10,6 C 10,0 C 89 % 1006,4 hPa 0,0 l/m 0 min 0 min 0 W/m 22,5 km/h (4 Bft) 95,65 %
19.10.2019 05:18 11,4 C 10,6 C 10,6 C 89 % 1006,4 hPa 0,0 l/m 0 min 0 min 0 W/m 29,0 km/h (5 Bft) 91,49 %
19.10.2019 05:20 11,4 C 10,6 C 10,6 C 89 % 1006,3 hPa 0,0 l/m 0 min 0 min 0 W/m 25,7 km/h (4 Bft) 97,87 %
19.10.2019 05:22 11,4 C 10,6 C 10,6 C 89 % 1006,3 hPa 0,0 l/m 0 min 0 min 0 W/m 16,1 km/h (3 Bft) 97,87 %
19.10.2019 05:24 11,4 C 10,6 C 10,0 C 89 % 1006,3 hPa 0,0 l/m 0 min 0 min 0 W/m 19,3 km/h (3 Bft) 97,87 %
19.10.2019 05:26 11,4 C 10,6 C 10,6 C 89 % 1006,2 hPa 0,0 l/m 0 min 0 min 0 W/m 19,3 km/h (3 Bft) 95,74 %
19.10.2019 05:28 11,4 C 10,6 C 10,6 C 89 % 1006,2 hPa 0,0 l/m 0 min 0 min 0 W/m 19,3 km/h (3 Bft) 95,65 %
19.10.2019 05:30 11,4 C 10,6 C 10,6 C 89 % 1006,2 hPa 0,0 l/m 0 min 0 min 0 W/m 19,3 km/h (3 Bft) 97,87 %
19.10.2019 05:32 11,4 C 10,6 C 10,6 C 89 % 1006,2 hPa 0,0 l/m 0 min 0 min 0 W/m 19,3 km/h (3 Bft) 97,87 %
19.10.2019 05:34 11,4 C 10,6 C 10,6 C 89 % 1006,2 hPa 0,0 l/m 0 min 0 min 0 W/m 16,1 km/h (3 Bft) 95,74 %
19.10.2019 05:36 11,5 C 10,6 C 10,6 C 89 % 1006,2 hPa 0,0 l/m 0 min 0 min 0 W/m 16,1 km/h (3 Bft) 95,74 %
19.10.2019 05:38 11,5 C 10,6 C 10,6 C 89 % 1006,2 hPa 0,0 l/m 0 min 0 min 0 W/m 16,1 km/h (3 Bft) 97,87 %
19.10.2019 05:40 11,5 C 10,6 C 10,6 C 88 % 1006,3 hPa 0,0 l/m 0 min 0 min 0 W/m 12,9 km/h (3 Bft) 97,83 %
19.10.2019 05:42 11,5 C 10,6 C 10,6 C 88 % 1006,3 hPa 0,0 l/m 0 min 0 min 0 W/m 16,1 km/h (3 Bft) 97,87 %
19.10.2019 05:44 11,5 C 10,6 C 10,6 C 88 % 1006,3 hPa 0,0 l/m 0 min 0 min 0 W/m 19,3 km/h (3 Bft) 97,87 %
19.10.2019 05:46 11,5 C 10,6 C 10,6 C 89 % 1006,3 hPa 0,0 l/m 0 min 0 min 0 W/m 19,3 km/h (3 Bft) 95,74 %
19.10.2019 05:48 11,5 C 10,6 C 10,6 C 89 % 1006,4 hPa 0,0 l/m 0 min 0 min 0 W/m 25,7 km/h (4 Bft) 95,74 %
19.10.2019 05:50 11,6 C 11,1 C 10,6 C 89 % 1006,4 hPa 0,0 l/m 0 min 0 min 0 W/m 19,3 km/h (3 Bft) 97,87 %
19.10.2019 05:52 11,6 C 11,1 C 10,6 C 89 % 1006,3 hPa 0,0 l/m 0 min 0 min 0 W/m 19,3 km/h (3 Bft) 97,83 %
19.10.2019 05:54 11,6 C 10,6 C 10,6 C 89 % 1006,2 hPa 0,0 l/m 0 min 0 min 0 W/m 12,9 km/h (3 Bft) 97,87 %
19.10.2019 05:56 11,6 C 11,1 C 10,6 C 89 % 1006,3 hPa 0,0 l/m 0 min 0 min 0 W/m 16,1 km/h (3 Bft) 100,00 %
19.10.2019 05:58 11,6 C 10,6 C 10,0 C 89 % 1006,2 hPa 0,0 l/m 0 min 0 min 0 W/m 16,1 km/h (3 Bft) 100,00 %
19.10.2019 06:00 11,6 C 10,6 C 10,6 C 89 % 1006,2 hPa 0,0 l/m 0 min 0 min 0 W/m 16,1 km/h (3 Bft) 100,00 %
19.10.2019 06:02 11,6 C 11,1 C 10,6 C 89 % 1006,2 hPa 0,0 l/m 0 min 0 min 0 W/m 16,1 km/h (3 Bft) 100,00 %
19.10.2019 06:04 11,6 C 11,1 C 10,6 C 89 % 1006,1 hPa 0,0 l/m 0 min 0 min 0 W/m 19,3 km/h (3 Bft) 100,00 %
19.10.2019 06:08 11,6 C 11,1 C 10,6 C 89 % 1006,1 hPa 0,0 l/m 0 min 0 min 0 W/m 16,1 km/h (3 Bft) 98,94 %
19.10.2019 06:10 11,6 C 11,1 C 10,6 C 89 % 1006,2 hPa 0,0 l/m 0 min 0 min 0 W/m 16,1 km/h (3 Bft) 100,00 %
19.10.2019 06:12 11,6 C 11,1 C 10,6 C 89 % 1006,2 hPa 0,0 l/m 0 min 0 min 0 W/m 19,3 km/h (3 Bft) 100,00 %
19.10.2019 06:14 11,6 C 11,1 C 10,6 C 89 % 1006,2 hPa 0,0 l/m 0 min 0 min 0 W/m 16,1 km/h (3 Bft) 100,00 %
19.10.2019 06:16 11,6 C 11,1 C 10,6 C 89 % 1006,2 hPa 0,0 l/m 0 min 0 min 0 W/m 12,9 km/h (3 Bft) 100,00 %
19.10.2019 06:18 11,6 C 10,6 C 10,6 C 89 % 1006,2 hPa 0,0 l/m 0 min 0 min 0 W/m 12,9 km/h (3 Bft) 100,00 %
19.10.2019 06:20 11,6 C 11,1 C 10,6 C 89 % 1006,2 hPa 0,0 l/m 0 min 0 min 0 W/m 16,1 km/h (3 Bft) 100,00 %
19.10.2019 06:22 11,6 C 10,6 C 10,6 C 89 % 1006,1 hPa 0,0 l/m 0 min 0 min 0 W/m 12,9 km/h (3 Bft) 97,87 %
19.10.2019 06:24 11,6 C 10,6 C 10,6 C 89 % 1006,1 hPa 0,0 l/m 0 min 0 min 0 W/m 19,3 km/h (3 Bft) 100,00 %
19.10.2019 06:26 11,6 C 10,6 C 10,0 C 89 % 1006,1 hPa 0,0 l/m 0 min 2 min 0 W/m 16,1 km/h (3 Bft) 100,00 %
19.10.2019 06:28 11,6 C 10,6 C 10,0 C 89 % 1006,1 hPa 0,0 l/m 0 min 0 min 0 W/m 12,9 km/h (3 Bft) 100,00 %
19.10.2019 06:30 11,6 C 10,6 C 10,0 C 89 % 1006,1 hPa 0,0 l/m 0 min 0 min 0 W/m 12,9 km/h (3 Bft) 100,00 %
19.10.2019 06:32 11,6 C 10,6 C 10,0 C 89 % 1006,1 hPa 0,0 l/m 0 min 0 min 0 W/m 16,1 km/h (3 Bft) 97,87 %
19.10.2019 06:34 11,6 C 10,6 C 10,0 C 89 % 1006,1 hPa 0,0 l/m 0 min 0 min 0 W/m 16,1 km/h (3 Bft) 100,00 %
19.10.2019 06:36 11,6 C 10,6 C 10,0 C 89 % 1006,0 hPa 0,0 l/m 0 min 0 min 0 W/m 12,9 km/h (3 Bft) 100,00 %
19.10.2019 06:38 11,6 C 10,6 C 10,0 C 89 % 1006,1 hPa 0,0 l/m 0 min 0 min 0 W/m 12,9 km/h (3 Bft) 100,00 %
19.10.2019 06:40 11,6 C 10,6 C 10,0 C 89 % 1006,0 hPa 0,0 l/m 0 min 2 min 0 W/m 19,3 km/h (3 Bft) 95,74 %
19.10.2019 06:42 11,6 C 10,6 C 10,0 C 89 % 1006,1 hPa 0,0 l/m 0 min 0 min 0 W/m 16,1 km/h (3 Bft) 100,00 %
19.10.2019 06:44 11,6 C 10,6 C 10,0 C 89 % 1006,1 hPa 0,0 l/m 0 min 2 min 0 W/m 19,3 km/h (3 Bft) 100,00 %
19.10.2019 06:46 11,6 C 10,6 C 10,0 C 89 % 1006,0 hPa 0,0 l/m 0 min 0 min 0 W/m 19,3 km/h (3 Bft) 100,00 %
19.10.2019 06:48 11,6 C 10,6 C 10,0 C 89 % 1006,1 hPa 0,0 l/m 0 min 0 min 0 W/m 12,9 km/h (3 Bft) 97,83 %
19.10.2019 06:50 11,6 C 10,6 C 10,0 C 89 % 1006,0 hPa 0,0 l/m 0 min 0 min 0 W/m 16,1 km/h (3 Bft) 97,87 %
19.10.2019 06:52 11,6 C 10,6 C 10,0 C 89 % 1006,0 hPa 0,0 l/m 0 min 0 min 0 W/m 16,1 km/h (3 Bft) 100,00 %
19.10.2019 06:54 11,6 C 10,6 C 10,0 C 89 % 1006,0 hPa 0,0 l/m 0 min 0 min 0 W/m 16,1 km/h (3 Bft) 100,00 %
19.10.2019 06:56 11,6 C 10,6 C 10,0 C 89 % 1006,0 hPa 0,0 l/m 0 min 0 min 0 W/m 16,1 km/h (3 Bft) 97,87 %
19.10.2019 06:58 11,6 C 10,6 C 10,0 C 89 % 1006,0 hPa 0,0 l/m 0 min 0 min 0 W/m 19,3 km/h (3 Bft) 97,87 %
19.10.2019 07:00 11,6 C 10,6 C 10,0 C 89 % 1005,9 hPa 0,0 l/m 0 min 0 min 0 W/m 16,1 km/h (3 Bft) 100,00 %
19.10.2019 07:02 11,5 C 10,6 C 10,0 C 89 % 1005,9 hPa 0,0 l/m 0 min 0 min 0 W/m 16,1 km/h (3 Bft) 95,74 %
19.10.2019 07:04 11,5 C 10,6 C 10,0 C 89 % 1005,9 hPa 0,0 l/m 0 min 0 min 0 W/m 25,7 km/h (4 Bft) 97,87 %
19.10.2019 07:06 11,5 C 10,6 C 10,0 C 90 % 1005,9 hPa 0,0 l/m 0 min 0 min 0 W/m 19,3 km/h (3 Bft) 97,87 %
19.10.2019 07:08 11,5 C 10,6 C 10,0 C 90 % 1005,9 hPa 0,0 l/m 0 min 0 min 0 W/m 19,3 km/h (3 Bft) 97,87 %
19.10.2019 07:10 11,5 C 10,6 C 10,0 C 90 % 1005,8 hPa 0,0 l/m 0 min 0 min 0 W/m 19,3 km/h (3 Bft) 97,87 %
19.10.2019 07:12 11,5 C 10,6 C 10,0 C 90 % 1005,8 hPa 0,0 l/m 0 min 0 min 0 W/m 22,5 km/h (4 Bft) 95,65 %
19.10.2019 07:14 11,5 C 10,6 C 10,0 C 90 % 1005,9 hPa 0,0 l/m 0 min 0 min 0 W/m 19,3 km/h (3 Bft) 97,87 %
19.10.2019 07:16 11,4 C 10,6 C 10,0 C 90 % 1005,8 hPa 0,0 l/m 0 min 0 min 0 W/m 12,9 km/h (3 Bft) 97,87 %
19.10.2019 07:18 11,5 C 10,6 C 10,0 C 90 % 1005,8 hPa 0,0 l/m 0 min 0 min 0 W/m 22,5 km/h (4 Bft) 97,87 %
19.10.2019 07:20 11,5 C 10,6 C 10,0 C 90 % 1005,8 hPa 0,0 l/m 0 min 0 min 0 W/m 16,1 km/h (3 Bft) 95,74 %
19.10.2019 07:22 11,4 C 10,6 C 10,0 C 90 % 1005,8 hPa 0,0 l/m 0 min 0 min 0 W/m 12,9 km/h (3 Bft) 97,87 %
19.10.2019 07:24 11,4 C 10,6 C 10,0 C 90 % 1005,8 hPa 0,0 l/m 0 min 0 min 0 W/m 19,3 km/h (3 Bft) 97,83 %
19.10.2019 07:26 11,4 C 10,6 C 10,0 C 90 % 1005,8 hPa 0,0 l/m 0 min 0 min 0 W/m 16,1 km/h (3 Bft) 97,87 %
19.10.2019 07:28 11,4 C 10,6 C 10,0 C 90 % 1005,7 hPa 0,0 l/m 0 min 0 min 0 W/m 22,5 km/h (4 Bft) 97,87 %
19.10.2019 07:30 11,4 C 10,6 C 10,0 C 90 % 1005,7 hPa 0,0 l/m 0 min 0 min 0 W/m 12,9 km/h (3 Bft) 97,87 %
19.10.2019 07:32 11,4 C 10,6 C 10,0 C 90 % 1005,7 hPa 0,0 l/m 0 min 0 min 0 W/m 12,9 km/h (3 Bft) 97,87 %
19.10.2019 07:34 11,4 C 10,6 C 10,0 C 90 % 1005,7 hPa 0,0 l/m 0 min 0 min 0 W/m 12,9 km/h (3 Bft) 97,83 %
19.10.2019 07:36 11,4 C 10,6 C 10,0 C 90 % 1005,7 hPa 0,0 l/m 0 min 0 min 0 W/m 16,1 km/h (3 Bft) 95,74 %
19.10.2019 07:38 11,4 C 10,6 C 10,0 C 90 % 1005,6 hPa 0,0 l/m 0 min 0 min 0 W/m 12,9 km/h (3 Bft) 95,74 %
19.10.2019 07:40 11,4 C 10,6 C 10,0 C 90 % 1005,6 hPa 0,0 l/m 0 min 0 min 0 W/m 16,1 km/h (3 Bft) 95,74 %
19.10.2019 07:42 11,4 C 10,6 C 10,0 C 90 % 1005,7 hPa 0,0 l/m 0 min 0 min 0 W/m 16,1 km/h (3 Bft) 95,74 %
19.10.2019 07:44 11,4 C 10,6 C 10,0 C 90 % 1005,7 hPa 0,0 l/m 0 min 0 min 0 W/m 16,1 km/h (3 Bft) 95,74 %
19.10.2019 07:46 11,4 C 10,6 C 10,0 C 90 % 1005,6 hPa 0,0 l/m 0 min 0 min 0 W/m 16,1 km/h (3 Bft) 93,48 %
19.10.2019 07:48 11,4 C 10,6 C 10,0 C 90 % 1005,6 hPa 0,0 l/m 0 min 0 min 0 W/m 12,9 km/h (3 Bft) 95,74 %
19.10.2019 07:50 11,4 C 10,6 C 10,0 C 90 % 1005,6 hPa 0,0 l/m 0 min 0 min 0 W/m 12,9 km/h (3 Bft) 93,62 %
19.10.2019 07:52 11,4 C 10,6 C 10,0 C 90 % 1005,7 hPa 0,0 l/m 0 min 0 min 0 W/m 16,1 km/h (3 Bft) 95,74 %
19.10.2019 07:54 11,4 C 10,6 C 10,0 C 90 % 1005,6 hPa 0,0 l/m 0 min 0 min 0 W/m 12,9 km/h (3 Bft) 93,62 %
19.10.2019 07:56 11,4 C 10,6 C 10,0 C 90 % 1005,5 hPa 0,0 l/m 0 min 2 min 0 W/m 16,1 km/h (3 Bft) 95,74 %
19.10.2019 07:58 11,5 C 10,6 C 10,0 C 90 % 1005,5 hPa 0,0 l/m 0 min 2 min 0 W/m 22,5 km/h (4 Bft) 95,65 %
19.10.2019 08:00 11,5 C 10,0 C 10,0 C 90 % 1005,5 hPa 0,0 l/m 0 min 2 min 0 W/m 19,3 km/h (3 Bft) 95,74 %
19.10.2019 08:02 11,5 C 10,0 C 9,4 C 90 % 1005,5 hPa 0,0 l/m 0 min 2 min 0 W/m 16,1 km/h (3 Bft) 95,74 %
19.10.2019 08:04 11,5 C 10,0 C 9,4 C 91 % 1005,5 hPa 0,0 l/m 0 min 2 min 0 W/m 16,1 km/h (3 Bft) 95,74 %
19.10.2019 08:06 11,5 C 10,0 C 9,4 C 91 % 1005,4 hPa 0,0 l/m 0 min 0 min 0 W/m 16,1 km/h (3 Bft) 95,74 %
19.10.2019 08:08 11,5 C 10,0 C 9,4 C 91 % 1005,5 hPa 0,0 l/m 0 min 0 min 0 W/m 16,1 km/h (3 Bft) 95,74 %
19.10.2019 08:10 11,5 C 10,0 C 9,4 C 91 % 1005,4 hPa 0,0 l/m 0 min 0 min 0 W/m 12,9 km/h (3 Bft) 93,48 %
19.10.2019 08:12 11,5 C 10,0 C 9,4 C 91 % 1005,4 hPa 0,0 l/m 0 min 0 min 0 W/m 12,9 km/h (3 Bft) 95,74 %
19.10.2019 08:14 11,5 C 10,0 C 9,4 C 91 % 1005,4 hPa 0,0 l/m 0 min 0 min 0 W/m 12,9 km/h (3 Bft) 95,74 %
19.10.2019 08:16 11,5 C 10,0 C 9,4 C 91 % 1005,4 hPa 0,0 l/m 0 min 0 min 0 W/m 16,1 km/h (3 Bft) 95,74 %
19.10.2019 08:18 11,4 C 10,0 C 9,4 C 91 % 1005,4 hPa 0,0 l/m 0 min 2 min 4 W/m 19,3 km/h (3 Bft) 95,74 %
19.10.2019 08:20 11,4 C 10,0 C 9,4 C 91 % 1005,3 hPa 0,0 l/m 0 min 2 min 5 W/m 22,5 km/h (4 Bft) 95,74 %
19.10.2019 08:22 11,4 C 10,0 C 9,4 C 91 % 1005,3 hPa 0,0 l/m 0 min 2 min 5 W/m 16,1 km/h (3 Bft) 95,65 %
19.10.2019 08:24 11,4 C 10,0 C 9,4 C 91 % 1005,3 hPa 0,0 l/m 0 min 0 min 6 W/m 19,3 km/h (3 Bft) 95,74 %
19.10.2019 08:26 11,4 C 10,0 C 9,4 C 91 % 1005,2 hPa 0,0 l/m 0 min 0 min 7 W/m 22,5 km/h (4 Bft) 95,74 %
19.10.2019 08:28 11,4 C 10,0 C 9,4 C 91 % 1005,3 hPa 0,0 l/m 0 min 0 min 7 W/m 16,1 km/h (3 Bft) 95,74 %
19.10.2019 08:30 11,4 C 10,0 C 9,4 C 91 % 1005,3 hPa 0,0 l/m 0 min 0 min 8 W/m 16,1 km/h (3 Bft) 97,87 %
19.10.2019 08:32 11,4 C 10,0 C 9,4 C 91 % 1005,3 hPa 0,0 l/m 0 min 0 min 9 W/m 16,1 km/h (3 Bft) 91,49 %
19.10.2019 08:34 11,4 C 10,0 C 9,4 C 91 % 1005,3 hPa 0,0 l/m 0 min 0 min 9 W/m 16,1 km/h (3 Bft) 97,83 %
19.10.2019 08:36 11,4 C 10,6 C 9,4 C 91 % 1005,3 hPa 0,0 l/m 0 min 0 min 9 W/m 16,1 km/h (3 Bft) 97,87 %
19.10.2019 08:38 11,4 C 10,6 C 9,4 C 91 % 1005,3 hPa 0,0 l/m 0 min 0 min 11 W/m 16,1 km/h (3 Bft) 97,87 %
19.10.2019 08:40 11,4 C 10,6 C 10,0 C 91 % 1005,3 hPa 0,0 l/m 0 min 0 min 12 W/m 22,5 km/h (4 Bft) 93,62 %
19.10.2019 08:42 11,4 C 10,6 C 10,0 C 92 % 1005,3 hPa 0,0 l/m 0 min 0 min 16 W/m 19,3 km/h (3 Bft) 93,62 %
19.10.2019 08:44 11,4 C 10,6 C 10,0 C 92 % 1005,4 hPa 0,0 l/m 0 min 0 min 18 W/m 19,3 km/h (3 Bft) 97,87 %
19.10.2019 08:46 11,4 C 10,6 C 10,0 C 92 % 1005,4 hPa 0,0 l/m 0 min 0 min 18 W/m 16,1 km/h (3 Bft) 97,83 %
19.10.2019 08:48 11,4 C 11,1 C 10,0 C 92 % 1005,3 hPa 0,0 l/m 0 min 0 min 18 W/m 16,1 km/h (3 Bft) 97,87 %
19.10.2019 08:50 11,4 C 11,1 C 10,0 C 92 % 1005,4 hPa 0,0 l/m 0 min 0 min 18 W/m 12,9 km/h (3 Bft) 97,87 %
19.10.2019 08:52 11,5 C 11,1 C 10,0 C 92 % 1005,4 hPa 0,0 l/m 0 min 2 min 18 W/m 19,3 km/h (3 Bft) 97,87 %
19.10.2019 08:54 11,5 C 11,1 C 10,0 C 92 % 1005,4 hPa 0,0 l/m 0 min 0 min 15 W/m 19,3 km/h (3 Bft) 100,00 %
19.10.2019 08:56 11,5 C 11,1 C 10,0 C 92 % 1005,4 hPa 0,0 l/m 0 min 0 min 12 W/m 22,5 km/h (4 Bft) 97,83 %
19.10.2019 08:58 11,5 C 11,1 C 10,0 C 92 % 1005,4 hPa 0,0 l/m 0 min 2 min 12 W/m 16,1 km/h (3 Bft) 100,00 %
19.10.2019 09:00 11,5 C 10,6 C 10,0 C 92 % 1005,5 hPa 0,0 l/m 0 min 2 min 12 W/m 19,3 km/h (3 Bft) 100,00 %
19.10.2019 09:02 11,5 C 10,6 C 10,0 C 92 % 1005,4 hPa 0,0 l/m 0 min 2 min 11 W/m 16,1 km/h (3 Bft) 100,00 %
19.10.2019 09:04 11,5 C 10,0 C 9,4 C 92 % 1005,4 hPa 0,0 l/m 0 min 2 min 11 W/m 16,1 km/h (3 Bft) 100,00 %
19.10.2019 09:06 11,6 C 10,0 C 9,4 C 92 % 1005,5 hPa 0,0 l/m 0 min 2 min 11 W/m 16,1 km/h (3 Bft) 97,87 %
19.10.2019 09:08 11,6 C 10,0 C 9,4 C 92 % 1005,5 hPa 0,0 l/m 0 min 2 min 11 W/m 19,3 km/h (3 Bft) 97,83 %
19.10.2019 09:10 11,6 C 10,0 C 9,4 C 92 % 1005,5 hPa 0,0 l/m 0 min 2 min 11 W/m 16,1 km/h (3 Bft) 100,00 %
19.10.2019 09:12 11,6 C 10,0 C 9,4 C 92 % 1005,5 hPa 0,2 l/m 0 min 2 min 9 W/m 16,1 km/h (3 Bft) 100,00 %
19.10.2019 09:14 11,6 C 9,4 C 9,4 C 92 % 1005,5 hPa 0,0 l/m 0 min 2 min 10 W/m 19,3 km/h (3 Bft) 100,00 %
19.10.2019 09:16 11,6 C 9,4 C 9,4 C 92 % 1005,5 hPa 0,0 l/m 0 min 2 min 15 W/m 12,9 km/h (3 Bft) 100,00 %
19.10.2019 09:18 11,6 C 9,4 C 9,4 C 92 % 1005,5 hPa 0,2 l/m 0 min 2 min 22 W/m 16,1 km/h (3 Bft) 100,00 %
19.10.2019 09:20 11,6 C 9,4 C 9,4 C 92 % 1005,5 hPa 0,0 l/m 0 min 2 min 21 W/m 16,1 km/h (3 Bft) 100,00 %
19.10.2019 09:22 11,6 C 9,4 C 9,4 C 93 % 1005,5 hPa 0,0 l/m 0 min 2 min 20 W/m 16,1 km/h (3 Bft) 100,00 %
19.10.2019 09:24 11,6 C 9,4 C 9,4 C 93 % 1005,4 hPa 0,0 l/m 0 min 2 min 21 W/m 16,1 km/h (3 Bft) 100,00 %
19.10.2019 09:26 11,6 C 9,4 C 9,4 C 93 % 1005,4 hPa 0,0 l/m 0 min 2 min 23 W/m 22,5 km/h (4 Bft) 100,00 %
19.10.2019 09:28 11,6 C 10,0 C 9,4 C 93 % 1005,5 hPa 0,0 l/m 0 min 2 min 22 W/m 16,1 km/h (3 Bft) 100,00 %
19.10.2019 09:30 11,6 C 10,0 C 9,4 C 93 % 1005,5 hPa 0,0 l/m 0 min 2 min 20 W/m 22,5 km/h (4 Bft) 97,87 %
19.10.2019 09:32 11,6 C 10,0 C 9,4 C 93 % 1005,4 hPa 0,0 l/m 0 min 2 min 18 W/m 19,3 km/h (3 Bft) 100,00 %
19.10.2019 09:34 11,6 C 10,0 C 9,4 C 93 % 1005,4 hPa 0,0 l/m 0 min 2 min 16 W/m 22,5 km/h (4 Bft) 100,00 %
19.10.2019 09:36 11,5 C 10,0 C 9,4 C 93 % 1005,5 hPa 0,0 l/m 0 min 2 min 17 W/m 16,1 km/h (3 Bft) 100,00 %
19.10.2019 09:38 11,5 C 10,0 C 9,4 C 93 % 1005,5 hPa 0,0 l/m 0 min 2 min 20 W/m 19,3 km/h (3 Bft) 100,00 %
19.10.2019 09:40 11,5 C 10,0 C 9,4 C 93 % 1005,5 hPa 0,0 l/m 0 min 2 min 22 W/m 19,3 km/h (3 Bft) 100,00 %
19.10.2019 09:42 11,5 C 10,0 C 9,4 C 94 % 1005,5 hPa 0,0 l/m 0 min 2 min 19 W/m 12,9 km/h (3 Bft) 97,83 %
19.10.2019 09:44 11,5 C 10,0 C 9,4 C 94 % 1005,5 hPa 0,0 l/m 0 min 2 min 20 W/m 22,5 km/h (4 Bft) 97,87 %
19.10.2019 09:46 11,5 C 10,0 C 9,4 C 94 % 1005,6 hPa 0,0 l/m 0 min 2 min 25 W/m 16,1 km/h (3 Bft) 100,00 %
19.10.2019 09:48 11,5 C 10,0 C 9,4 C 94 % 1005,5 hPa 0,0 l/m 0 min 2 min 29 W/m 16,1 km/h (3 Bft) 100,00 %
19.10.2019 09:50 11,5 C 10,0 C 9,4 C 94 % 1005,5 hPa 0,2 l/m 0 min 2 min 30 W/m 16,1 km/h (3 Bft) 93,62 %
19.10.2019 09:52 11,5 C 10,0 C 9,4 C 94 % 1005,5 hPa 0,0 l/m 0 min 2 min 33 W/m 19,3 km/h (3 Bft) 97,87 %
19.10.2019 09:54 11,5 C 10,0 C 9,4 C 94 % 1005,5 hPa 0,0 l/m 0 min 2 min 36 W/m 12,9 km/h (3 Bft) 97,87 %
19.10.2019 09:56 11,5 C 10,0 C 9,4 C 94 % 1005,5 hPa 0,0 l/m 0 min 2 min 41 W/m 12,9 km/h (3 Bft) 95,65 %
19.10.2019 09:58 11,5 C 10,0 C 9,4 C 94 % 1005,5 hPa 0,0 l/m 0 min 0 min 47 W/m 12,9 km/h (3 Bft) 97,87 %
19.10.2019 10:00 11,5 C 10,0 C 9,4 C 94 % 1005,4 hPa 0,0 l/m 0 min 0 min 49 W/m 16,1 km/h (3 Bft) 97,87 %
19.10.2019 10:02 11,6 C 10,0 C 9,4 C 95 % 1005,5 hPa 0,0 l/m 0 min 0 min 45 W/m 19,3 km/h (3 Bft) 97,87 %
19.10.2019 10:04 11,6 C 10,0 C 10,0 C 95 % 1005,4 hPa 0,0 l/m 0 min 2 min 49 W/m 12,9 km/h (3 Bft) 97,87 %
19.10.2019 10:06 11,6 C 10,0 C 10,0 C 95 % 1005,3 hPa 0,0 l/m 0 min 2 min 55 W/m 22,5 km/h (4 Bft) 95,65 %
19.10.2019 10:08 11,6 C 10,6 C 10,0 C 95 % 1005,3 hPa 0,0 l/m 0 min 2 min 58 W/m 16,1 km/h (3 Bft) 95,74 %
19.10.2019 10:10 11,6 C 10,6 C 10,0 C 95 % 1005,3 hPa 0,0 l/m 0 min 2 min 59 W/m 16,1 km/h (3 Bft) 97,87 %
19.10.2019 10:12 11,6 C 10,6 C 10,0 C 95 % 1005,3 hPa 0,0 l/m 0 min 2 min 54 W/m 19,3 km/h (3 Bft) 97,87 %
19.10.2019 10:14 11,6 C 10,6 C 10,0 C 95 % 1005,4 hPa 0,0 l/m 0 min 2 min 52 W/m 12,9 km/h (3 Bft) 97,87 %
19.10.2019 10:16 11,6 C 10,6 C 10,0 C 95 % 1005,3 hPa 0,0 l/m 0 min 2 min 56 W/m 19,3 km/h (3 Bft) 97,87 %
19.10.2019 10:18 11,7 C 10,6 C 10,0 C 95 % 1005,4 hPa 0,0 l/m 0 min 0 min 62 W/m 19,3 km/h (3 Bft) 97,83 %
19.10.2019 10:20 11,7 C 10,6 C 10,0 C 95 % 1005,4 hPa 0,0 l/m 0 min 0 min 67 W/m 12,9 km/h (3 Bft) 97,87 %
19.10.2019 10:22 11,7 C 10,6 C 10,0 C 95 % 1005,4 hPa 0,0 l/m 0 min 0 min 71 W/m 19,3 km/h (3 Bft) 97,87 %
19.10.2019 10:24 11,7 C 10,6 C 10,0 C 95 % 1005,3 hPa 0,0 l/m 0 min 0 min 65 W/m 12,9 km/h (3 Bft) 97,87 %
19.10.2019 10:26 11,7 C 10,6 C 10,0 C 95 % 1005,3 hPa 0,0 l/m 0 min 0 min 62 W/m 16,1 km/h (3 Bft) 95,74 %
19.10.2019 10:28 11,8 C 10,6 C 10,0 C 95 % 1005,3 hPa 0,0 l/m 0 min 0 min 56 W/m 12,9 km/h (3 Bft) 95,74 %
19.10.2019 10:30 11,8 C 10,6 C 10,0 C 96 % 1005,3 hPa 0,0 l/m 0 min 0 min 42 W/m 19,3 km/h (3 Bft) 91,30 %
19.10.2019 10:32 11,8 C 10,6 C 10,0 C 96 % 1005,2 hPa 0,0 l/m 0 min 0 min 42 W/m 12,9 km/h (3 Bft) 95,74 %
19.10.2019 10:34 11,8 C 10,6 C 10,0 C 96 % 1005,3 hPa 0,0 l/m 0 min 0 min 41 W/m 16,1 km/h (3 Bft) 93,62 %
19.10.2019 10:36 11,8 C 10,6 C 10,0 C 96 % 1005,2 hPa 0,0 l/m 0 min 0 min 33 W/m 19,3 km/h (3 Bft) 95,74 %
19.10.2019 10:38 11,8 C 10,6 C 10,0 C 96 % 1005,2 hPa 0,0 l/m 0 min 0 min 40 W/m 16,1 km/h (3 Bft) 93,62 %
19.10.2019 10:40 11,8 C 10,6 C 10,0 C 96 % 1005,2 hPa 0,2 l/m 0 min 2 min 38 W/m 16,1 km/h (3 Bft) 97,87 %
19.10.2019 10:42 11,9 C 10,6 C 10,0 C 96 % 1005,2 hPa 0,0 l/m 0 min 2 min 53 W/m 16,1 km/h (3 Bft) 97,83 %
19.10.2019 10:44 11,9 C 10,6 C 10,0 C 96 % 1005,3 hPa 0,0 l/m 0 min 2 min 71 W/m 16,1 km/h (3 Bft) 97,87 %
19.10.2019 10:46 11,9 C 10,6 C 10,0 C 96 % 1005,2 hPa 0,0 l/m 0 min 0 min 80 W/m 16,1 km/h (3 Bft) 95,74 %
19.10.2019 10:48 11,9 C 10,6 C 10,6 C 96 % 1005,3 hPa 0,0 l/m 0 min 0 min 74 W/m 16,1 km/h (3 Bft) 91,49 %
19.10.2019 10:50 11,9 C 11,1 C 10,6 C 96 % 1005,2 hPa 0,0 l/m 0 min 0 min 61 W/m 16,1 km/h (3 Bft) 97,87 %
19.10.2019 10:52 11,9 C 11,1 C 10,6 C 96 % 1005,2 hPa 0,0 l/m 0 min 0 min 58 W/m 22,5 km/h (4 Bft) 97,87 %
19.10.2019 10:54 11,9 C 11,1 C 10,6 C 96 % 1005,3 hPa 0,0 l/m 0 min 0 min 58 W/m 19,3 km/h (3 Bft) 97,83 %
19.10.2019 10:56 12,0 C 11,1 C 10,6 C 96 % 1005,3 hPa 0,0 l/m 0 min 0 min 64 W/m 22,5 km/h (4 Bft) 95,74 %
19.10.2019 10:58 12,0 C 11,1 C 10,6 C 96 % 1005,2 hPa 0,0 l/m 0 min 0 min 63 W/m 22,5 km/h (4 Bft) 97,87 %
19.10.2019 11:00 12,1 C 11,1 C 10,6 C 96 % 1005,2 hPa 0,0 l/m 0 min 0 min 67 W/m 22,5 km/h (4 Bft) 97,87 %
19.10.2019 11:02 12,1 C 11,1 C 10,6 C 96 % 1005,2 hPa 0,0 l/m 0 min 0 min 71 W/m 25,7 km/h (4 Bft) 93,62 %
19.10.2019 11:04 12,1 C 11,1 C 10,6 C 96 % 1005,3 hPa 0,0 l/m 0 min 0 min 78 W/m 19,3 km/h (3 Bft) 95,65 %
19.10.2019 11:06 12,1 C 11,1 C 10,6 C 96 % 1005,3 hPa 0,0 l/m 0 min 0 min 80 W/m 19,3 km/h (3 Bft) 95,74 %
19.10.2019 11:08 12,2 C 11,1 C 10,6 C 96 % 1005,3 hPa 0,0 l/m 0 min 2 min 87 W/m 22,5 km/h (4 Bft) 97,87 %
19.10.2019 11:10 12,2 C 11,1 C 10,6 C 96 % 1005,3 hPa 0,0 l/m 0 min 0 min 99 W/m 22,5 km/h (4 Bft) 100,00 %
19.10.2019 11:12 12,2 C 11,7 C 11,1 C 96 % 1005,3 hPa 0,0 l/m 0 min 0 min 107 W/m 19,3 km/h (3 Bft) 100,00 %
19.10.2019 11:14 12,3 C 11,7 C 11,1 C 96 % 1005,3 hPa 0,0 l/m 0 min 0 min 105 W/m 19,3 km/h (3 Bft) 100,00 %
19.10.2019 11:16 12,3 C 11,7 C 11,1 C 96 % 1005,3 hPa 0,0 l/m 0 min 0 min 133 W/m 19,3 km/h (3 Bft) 100,00 %
19.10.2019 11:18 12,4 C 12,2 C 11,1 C 96 % 1005,3 hPa 0,0 l/m 0 min 0 min 167 W/m 22,5 km/h (4 Bft) 100,00 %
19.10.2019 11:20 12,4 C 12,2 C 11,1 C 97 % 1005,4 hPa 0,0 l/m 0 min 0 min 172 W/m 19,3 km/h (3 Bft) 97,87 %
19.10.2019 11:22 12,5 C 12,2 C 11,7 C 97 % 1005,4 hPa 0,0 l/m 0 min 0 min 172 W/m 22,5 km/h (4 Bft) 100,00 %
19.10.2019 11:24 12,6 C 12,2 C 11,7 C 97 % 1005,4 hPa 0,0 l/m 0 min 0 min 154 W/m 22,5 km/h (4 Bft) 95,74 %
19.10.2019 11:26 12,6 C 12,2 C 11,7 C 97 % 1005,4 hPa 0,0 l/m 0 min 0 min 135 W/m 22,5 km/h (4 Bft) 95,74 %
19.10.2019 11:28 12,6 C 12,2 C 11,7 C 96 % 1005,4 hPa 0,0 l/m 0 min 0 min 116 W/m 12,9 km/h (3 Bft) 95,65 %
19.10.2019 11:30 12,7 C 12,2 C 11,7 C 96 % 1005,5 hPa 0,0 l/m 0 min 0 min 97 W/m 16,1 km/h (3 Bft) 95,74 %
19.10.2019 11:32 12,7 C 12,2 C 11,7 C 96 % 1005,5 hPa 0,0 l/m 0 min 0 min 92 W/m 12,9 km/h (3 Bft) 97,87 %
19.10.2019 11:34 12,7 C 12,2 C 11,7 C 96 % 1005,5 hPa 0,0 l/m 0 min 0 min 87 W/m 22,5 km/h (4 Bft) 97,87 %
19.10.2019 11:36 12,8 C 12,2 C 11,1 C 96 % 1005,4 hPa 0,0 l/m 0 min 0 min 84 W/m 25,7 km/h (4 Bft) 97,87 %
19.10.2019 11:38 12,8 C 12,2 C 11,1 C 96 % 1005,5 hPa 0,0 l/m 0 min 0 min 65 W/m 16,1 km/h (3 Bft) 97,87 %
19.10.2019 11:40 12,8 C 12,2 C 11,1 C 97 % 1005,4 hPa 0,0 l/m 0 min 0 min 54 W/m 22,5 km/h (4 Bft) 97,83 %
19.10.2019 11:42 12,8 C 12,2 C 11,1 C 97 % 1005,5 hPa 0,0 l/m 0 min 0 min 45 W/m 19,3 km/h (3 Bft) 95,74 %
19.10.2019 11:44 12,8 C 12,2 C 11,1 C 96 % 1005,4 hPa 0,0 l/m 0 min 0 min 54 W/m 16,1 km/h (3 Bft) 95,74 %
19.10.2019 11:46 12,8 C 12,2 C 11,1 C 96 % 1005,4 hPa 0,0 l/m 0 min 0 min 73 W/m 19,3 km/h (3 Bft) 97,87 %
19.10.2019 11:48 12,8 C 12,2 C 11,7 C 96 % 1005,4 hPa 0,0 l/m 0 min 0 min 103 W/m 19,3 km/h (3 Bft) 97,87 %
19.10.2019 11:50 12,9 C 12,2 C 11,7 C 96 % 1005,4 hPa 0,0 l/m 0 min 0 min 128 W/m 19,3 km/h (3 Bft) 97,87 %
19.10.2019 11:52 12,9 C 12,8 C 11,7 C 96 % 1005,3 hPa 0,0 l/m 0 min 0 min 146 W/m 19,3 km/h (3 Bft) 97,83 %
19.10.2019 11:54 12,9 C 12,8 C 11,7 C 96 % 1005,3 hPa 0,0 l/m 0 min 0 min 154 W/m 16,1 km/h (3 Bft) 97,87 %
19.10.2019 11:56 12,9 C 12,8 C 11,7 C 96 % 1005,3 hPa 0,0 l/m 0 min 0 min 158 W/m 22,5 km/h (4 Bft) 97,87 %
19.10.2019 11:58 12,9 C 12,8 C 11,7 C 96 % 1005,2 hPa 0,0 l/m 0 min 0 min 171 W/m 22,5 km/h (4 Bft) 97,87 %
19.10.2019 12:00 13,0 C 13,3 C 11,7 C 96 % 1005,2 hPa 0,0 l/m 0 min 0 min 181 W/m 19,3 km/h (3 Bft) 97,87 %
19.10.2019 12:02 13,1 C 13,3 C 11,7 C 96 % 1005,3 hPa 0,0 l/m 0 min 0 min 161 W/m 19,3 km/h (3 Bft) 97,83 %
19.10.2019 12:04 13,1 C 13,3 C 12,2 C 96 % 1005,2 hPa 0,0 l/m 0 min 0 min 153 W/m 22,5 km/h (4 Bft) 97,87 %
19.10.2019 12:06 13,1 C 13,9 C 11,7 C 96 % 1005,3 hPa 0,0 l/m 0 min 0 min 142 W/m 19,3 km/h (3 Bft) 97,87 %
19.10.2019 12:08 13,2 C 13,9 C 12,2 C 96 % 1005,3 hPa 0,0 l/m 0 min 0 min 148 W/m 12,9 km/h (3 Bft) 95,74 %
19.10.2019 12:10 13,2 C 13,9 C 12,2 C 96 % 1005,4 hPa 0,0 l/m 0 min 0 min 152 W/m 16,1 km/h (3 Bft) 97,87 %
19.10.2019 12:12 13,3 C 13,9 C 12,2 C 96 % 1005,3 hPa 0,0 l/m 0 min 0 min 150 W/m 16,1 km/h (3 Bft) 95,74 %
19.10.2019 12:14 13,3 C 13,9 C 12,2 C 96 % 1005,3 hPa 0,0 l/m 0 min 0 min 131 W/m 12,9 km/h (3 Bft) 97,83 %
19.10.2019 12:16 13,4 C 13,9 C 12,2 C 96 % 1005,4 hPa 0,0 l/m 0 min 0 min 116 W/m 12,9 km/h (3 Bft) 97,87 %
19.10.2019 12:18 13,4 C 13,9 C 12,2 C 96 % 1005,3 hPa 0,0 l/m 0 min 0 min 120 W/m 16,1 km/h (3 Bft) 100,00 %
19.10.2019 12:20 13,4 C 13,9 C 12,2 C 96 % 1005,4 hPa 0,0 l/m 0 min 0 min 122 W/m 19,3 km/h (3 Bft) 100,00 %
19.10.2019 12:22 13,5 C 13,9 C 12,2 C 96 % 1005,3 hPa 0,0 l/m 0 min 0 min 129 W/m 19,3 km/h (3 Bft) 95,74 %
19.10.2019 12:24 13,6 C 13,9 C 12,2 C 95 % 1005,2 hPa 0,0 l/m 0 min 0 min 110 W/m 12,9 km/h (3 Bft) 100,00 %
19.10.2019 12:26 13,6 C 13,9 C 12,2 C 95 % 1005,3 hPa 0,0 l/m 0 min 0 min 94 W/m 22,5 km/h (4 Bft) 100,00 %
19.10.2019 12:28 13,6 C 13,3 C 12,2 C 95 % 1005,4 hPa 0,0 l/m 0 min 0 min 88 W/m 16,1 km/h (3 Bft) 100,00 %
19.10.2019 12:30 13,7 C 13,3 C 12,2 C 95 % 1005,4 hPa 0,0 l/m 0 min 0 min 90 W/m 19,3 km/h (3 Bft) 100,00 %
19.10.2019 12:32 13,7 C 13,3 C 12,2 C 95 % 1005,4 hPa 0,0 l/m 0 min 2 min 114 W/m 16,1 km/h (3 Bft) 100,00 %
19.10.2019 12:34 13,7 C 13,3 C 12,2 C 95 % 1005,2 hPa 0,0 l/m 0 min 2 min 144 W/m 16,1 km/h (3 Bft) 100,00 %
19.10.2019 12:36 13,8 C 13,3 C 12,2 C 95 % 1005,3 hPa 0,0 l/m 0 min 0 min 174 W/m 19,3 km/h (3 Bft) 100,00 %
19.10.2019 12:38 13,8 C 13,3 C 12,2 C 95 % 1005,2 hPa 0,0 l/m 0 min 0 min 167 W/m 19,3 km/h (3 Bft) 97,83 %
19.10.2019 12:40 13,8 C 13,3 C 12,2 C 95 % 1005,3 hPa 0,0 l/m 0 min 0 min 138 W/m 12,9 km/h (3 Bft) 100,00 %
19.10.2019 12:42 13,9 C 13,3 C 12,2 C 95 % 1005,4 hPa 0,0 l/m 0 min 0 min 131 W/m 22,5 km/h (4 Bft) 100,00 %
19.10.2019 12:44 13,9 C 13,3 C 12,2 C 95 % 1005,4 hPa 0,0 l/m 0 min 2 min 154 W/m 16,1 km/h (3 Bft) 100,00 %
19.10.2019 12:46 13,9 C 13,3 C 12,2 C 95 % 1005,4 hPa 0,0 l/m 0 min 0 min 162 W/m 22,5 km/h (4 Bft) 100,00 %
19.10.2019 12:48 13,9 C 13,9 C 12,2 C 95 % 1005,3 hPa 0,0 l/m 0 min 0 min 164 W/m 16,1 km/h (3 Bft) 97,87 %
19.10.2019 12:50 13,9 C 13,9 C 12,2 C 94 % 1005,3 hPa 0,0 l/m 0 min 0 min 170 W/m 16,1 km/h (3 Bft) 100,00 %
19.10.2019 12:52 13,9 C 13,9 C 12,2 C 94 % 1005,3 hPa 0,0 l/m 0 min 0 min 160 W/m 16,1 km/h (3 Bft) 100,00 %
19.10.2019 12:54 14,0 C 13,9 C 12,2 C 94 % 1005,2 hPa 0,0 l/m 0 min 0 min 174 W/m 19,3 km/h (3 Bft) 97,87 %
19.10.2019 12:56 14,0 C 13,9 C 12,2 C 94 % 1005,1 hPa 0,0 l/m 0 min 0 min 180 W/m 25,7 km/h (4 Bft) 97,87 %
19.10.2019 12:58 14,0 C 13,9 C 12,2 C 94 % 1005,1 hPa 0,0 l/m 0 min 0 min 173 W/m 19,3 km/h (3 Bft) 97,87 %
19.10.2019 13:00 14,0 C 14,4 C 12,2 C 94 % 1005,0 hPa 0,0 l/m 0 min 0 min 171 W/m 25,7 km/h (4 Bft) 95,65 %
19.10.2019 13:02 14,1 C 13,9 C 12,2 C 94 % 1005,1 hPa 0,0 l/m 0 min 0 min 159 W/m 16,1 km/h (3 Bft) 95,74 %
19.10.2019 13:04 14,1 C 14,4 C 12,2 C 94 % 1005,1 hPa 0,0 l/m 0 min 0 min 148 W/m 16,1 km/h (3 Bft) 95,74 %
19.10.2019 13:06 14,1 C 14,4 C 12,2 C 94 % 1005,1 hPa 0,0 l/m 0 min 0 min 145 W/m 22,5 km/h (4 Bft) 91,49 %
19.10.2019 13:08 14,1 C 13,9 C 12,2 C 94 % 1005,1 hPa 0,0 l/m 0 min 0 min 138 W/m 12,9 km/h (3 Bft) 95,74 %
19.10.2019 13:10 14,1 C 13,9 C 12,2 C 94 % 1005,1 hPa 0,0 l/m 0 min 0 min 122 W/m 12,9 km/h (3 Bft) 95,74 %
19.10.2019 13:12 14,1 C 13,9 C 12,2 C 93 % 1005,1 hPa 0,0 l/m 0 min 0 min 91 W/m 22,5 km/h (4 Bft) 95,65 %
19.10.2019 13:14 14,1 C 13,9 C 12,2 C 93 % 1005,2 hPa 0,0 l/m 0 min 0 min 69 W/m 29,0 km/h (5 Bft) 95,74 %
19.10.2019 13:16 14,1 C 12,8 C 11,7 C 93 % 1005,3 hPa 0,0 l/m 0 min 2 min 75 W/m 29,0 km/h (5 Bft) 95,74 %
19.10.2019 13:18 14,1 C 12,2 C 11,7 C 93 % 1005,2 hPa 0,0 l/m 0 min 2 min 103 W/m 25,7 km/h (4 Bft) 95,74 %
19.10.2019 13:20 14,0 C 12,2 C 11,7 C 93 % 1005,1 hPa 0,0 l/m 0 min 2 min 117 W/m 12,9 km/h (3 Bft) 95,74 %
19.10.2019 13:22 14,0 C 12,2 C 11,7 C 93 % 1005,1 hPa 0,0 l/m 0 min 0 min 88 W/m 25,7 km/h (4 Bft) 93,62 %
19.10.2019 13:24 14,0 C 12,2 C 11,7 C 93 % 1005,1 hPa 0,0 l/m 0 min 0 min 66 W/m 16,1 km/h (3 Bft) 93,48 %
19.10.2019 13:26 13,9 C 12,2 C 11,7 C 93 % 1005,1 hPa 0,0 l/m 0 min 2 min 105 W/m 16,1 km/h (3 Bft) 95,74 %
19.10.2019 13:28 13,9 C 12,2 C 11,7 C 93 % 1005,0 hPa 0,0 l/m 0 min 2 min 148 W/m 12,9 km/h (3 Bft) 89,36 %
19.10.2019 13:30 13,9 C 12,2 C 11,7 C 93 % 1005,1 hPa 0,2 l/m 0 min 2 min 117 W/m 12,9 km/h (3 Bft) 95,74 %
19.10.2019 13:32 13,9 C 12,2 C 11,7 C 93 % 1005,1 hPa 0,0 l/m 0 min 0 min 84 W/m 16,1 km/h (3 Bft) 95,74 %
19.10.2019 13:34 13,9 C 12,2 C 11,7 C 93 % 1005,1 hPa 0,0 l/m 0 min 0 min 62 W/m 12,9 km/h (3 Bft) 93,62 %
19.10.2019 13:36 13,9 C 12,2 C 11,7 C 93 % 1005,1 hPa 0,0 l/m 0 min 0 min 60 W/m 12,9 km/h (3 Bft) 95,65 %
19.10.2019 13:38 13,9 C 12,2 C 11,7 C 93 % 1005,1 hPa 0,0 l/m 0 min 0 min 60 W/m 16,1 km/h (3 Bft) 95,74 %
19.10.2019 13:40 13,8 C 12,2 C 11,7 C 93 % 1005,1 hPa 0,0 l/m 0 min 0 min 41 W/m 6,4 km/h (2 Bft) 93,62 %
19.10.2019 13:42 13,8 C 12,2 C 11,7 C 94 % 1005,1 hPa 0,0 l/m 0 min 0 min 35 W/m 6,4 km/h (2 Bft) 95,74 %
19.10.2019 13:44 13,8 C 12,2 C 11,7 C 94 % 1005,0 hPa 0,0 l/m 0 min 2 min 37 W/m 9,7 km/h (2 Bft) 97,87 %
19.10.2019 13:46 13,8 C 12,2 C 11,7 C 93 % 1005,0 hPa 0,0 l/m 0 min 2 min 38 W/m 6,4 km/h (2 Bft) 97,87 %
19.10.2019 13:48 13,8 C 11,7 C 11,7 C 93 % 1005,0 hPa 0,0 l/m 0 min 2 min 34 W/m 6,4 km/h (2 Bft) 97,83 %
19.10.2019 13:50 13,8 C 11,7 C 11,7 C 93 % 1005,1 hPa 0,0 l/m 0 min 2 min 42 W/m 6,4 km/h (2 Bft) 100,00 %
19.10.2019 13:52 13,8 C 11,7 C 11,7 C 94 % 1005,1 hPa 0,0 l/m 0 min 2 min 42 W/m 12,9 km/h (3 Bft) 100,00 %
19.10.2019 13:54 13,7 C 12,2 C 11,7 C 94 % 1005,0 hPa 0,0 l/m 0 min 2 min 70 W/m 6,4 km/h (2 Bft) 97,87 %
19.10.2019 13:56 13,7 C 11,7 C 11,7 C 94 % 1005,0 hPa 0,0 l/m 0 min 0 min 38 W/m 6,4 km/h (2 Bft) 100,00 %
19.10.2019 13:58 13,7 C 11,7 C 11,7 C 94 % 1005,1 hPa 0,0 l/m 0 min 0 min 33 W/m 6,4 km/h (2 Bft) 100,00 %
19.10.2019 14:00 13,7 C 11,7 C 11,7 C 94 % 1005,1 hPa 0,0 l/m 0 min 0 min 28 W/m 12,9 km/h (3 Bft) 97,87 %
19.10.2019 14:02 13,6 C 11,7 C 11,1 C 94 % 1005,1 hPa 0,0 l/m 0 min 0 min 30 W/m 16,1 km/h (3 Bft) 100,00 %
19.10.2019 14:04 13,5 C 11,7 C 11,1 C 94 % 1005,1 hPa 0,0 l/m 0 min 0 min 26 W/m 16,1 km/h (3 Bft) 100,00 %
19.10.2019 14:06 13,5 C 11,7 C 11,1 C 94 % 1005,1 hPa 0,0 l/m 0 min 0 min 35 W/m 9,7 km/h (2 Bft) 52,27 %
19.10.2019 14:08 13,4 C 11,7 C 11,1 C 94 % 1005,0 hPa 0,0 l/m 0 min 0 min 30 W/m 16,1 km/h (3 Bft) 100,00 %
19.10.2019 14:10 13,3 C 11,7 C 11,1 C 94 % 1005,0 hPa 0,0 l/m 0 min 0 min 23 W/m 6,4 km/h (2 Bft) 100,00 %
19.10.2019 14:12 13,3 C 11,7 C 11,1 C 94 % 1005,0 hPa 0,0 l/m 0 min 0 min 38 W/m 12,9 km/h (3 Bft) 100,00 %
19.10.2019 14:14 13,2 C 11,7 C 11,1 C 94 % 1005,0 hPa 0,0 l/m 0 min 0 min 59 W/m 12,9 km/h (3 Bft) 100,00 %
19.10.2019 14:16 13,2 C 11,7 C 11,1 C 94 % 1005,1 hPa 0,0 l/m 0 min 0 min 58 W/m 6,4 km/h (2 Bft) 100,00 %
19.10.2019 14:18 13,2 C 11,7 C 11,1 C 94 % 1005,0 hPa 0,0 l/m 0 min 0 min 74 W/m 6,4 km/h (2 Bft) 100,00 %
19.10.2019 14:20 13,2 C 11,7 C 11,1 C 94 % 1005,0 hPa 0,0 l/m 0 min 0 min 87 W/m 12,9 km/h (3 Bft) 100,00 %
19.10.2019 14:22 13,1 C 11,7 C 11,1 C 94 % 1005,1 hPa 0,0 l/m 0 min 0 min 109 W/m 3,2 km/h (1 Bft) 100,00 %
19.10.2019 14:24 13,1 C 12,2 C 11,7 C 94 % 1005,1 hPa 0,0 l/m 0 min 0 min 109 W/m 6,4 km/h (2 Bft) 100,00 %
19.10.2019 14:26 13,1 C 12,2 C 11,7 C 94 % 1005,1 hPa 0,0 l/m 0 min 0 min 104 W/m 6,4 km/h (2 Bft) 100,00 %
19.10.2019 14:28 13,1 C 12,2 C 11,7 C 94 % 1005,0 hPa 0,0 l/m 0 min 0 min 99 W/m 9,7 km/h (2 Bft) 100,00 %
19.10.2019 14:30 13,1 C 12,2 C 11,7 C 94 % 1005,0 hPa 0,0 l/m 0 min 0 min 86 W/m 6,4 km/h (2 Bft) 100,00 %
19.10.2019 14:32 13,1 C 12,2 C 11,7 C 94 % 1005,0 hPa 0,0 l/m 0 min 0 min 83 W/m 6,4 km/h (2 Bft) 97,87 %
19.10.2019 14:34 13,1 C 12,2 C 11,7 C 94 % 1005,1 hPa 0,0 l/m 0 min 2 min 93 W/m 12,9 km/h (3 Bft) 100,00 %
19.10.2019 14:36 13,2 C 12,2 C 11,7 C 94 % 1005,0 hPa 0,0 l/m 0 min 2 min 90 W/m 6,4 km/h (2 Bft) 100,00 %
19.10.2019 14:38 13,2 C 12,2 C 11,7 C 94 % 1005,0 hPa 0,0 l/m 0 min 0 min 90 W/m 6,4 km/h (2 Bft) 97,87 %
19.10.2019 14:40 13,2 C 12,2 C 11,7 C 94 % 1005,0 hPa 0,0 l/m 0 min 0 min 79 W/m 6,4 km/h (2 Bft) 97,87 %
19.10.2019 14:42 13,2 C 12,2 C 11,7 C 94 % 1005,0 hPa 0,0 l/m 0 min 0 min 81 W/m 12,9 km/h (3 Bft) 97,87 %
19.10.2019 14:44 13,2 C 12,2 C 11,7 C 94 % 1005,0 hPa 0,0 l/m 0 min 2 min 86 W/m 6,4 km/h (2 Bft) 97,87 %
19.10.2019 14:46 13,2 C 12,2 C 11,7 C 95 % 1005,1 hPa 0,0 l/m 0 min 2 min 74 W/m 3,2 km/h (1 Bft) 97,83 %
19.10.2019 14:48 13,2 C 11,7 C 11,7 C 95 % 1005,1 hPa 0,0 l/m 0 min 2 min 50 W/m 9,7 km/h (2 Bft) 95,74 %
19.10.2019 14:50 13,2 C 11,7 C 11,1 C 95 % 1005,1 hPa 0,2 l/m 0 min 2 min 39 W/m 3,2 km/h (1 Bft) 97,87 %
19.10.2019 14:52 13,2 C 11,7 C 11,1 C 95 % 1005,2 hPa 0,0 l/m 0 min 2 min 33 W/m 9,7 km/h (2 Bft) 97,87 %
19.10.2019 14:54 13,2 C 11,7 C 11,1 C 95 % 1005,2 hPa 0,0 l/m 0 min 2 min 32 W/m 6,4 km/h (2 Bft) 93,62 %
19.10.2019 14:56 13,2 C 11,7 C 11,1 C 95 % 1005,2 hPa 0,2 l/m 0 min 2 min 36 W/m 6,4 km/h (2 Bft) 97,87 %
19.10.2019 14:58 13,2 C 11,7 C 11,1 C 95 % 1005,2 hPa 0,0 l/m 0 min 2 min 39 W/m 6,4 km/h (2 Bft) 97,83 %
19.10.2019 15:00 13,2 C 11,7 C 11,1 C 95 % 1005,2 hPa 0,2 l/m 0 min 2 min 45 W/m 6,4 km/h (2 Bft) 97,87 %
19.10.2019 15:02 13,2 C 11,7 C 11,1 C 95 % 1005,2 hPa 0,0 l/m 0 min 2 min 52 W/m 3,2 km/h (1 Bft) 95,74 %
19.10.2019 15:04 13,2 C 11,7 C 11,1 C 95 % 1005,2 hPa 0,2 l/m 0 min 2 min 45 W/m 3,2 km/h (1 Bft) 97,87 %
19.10.2019 15:06 13,2 C 11,7 C 11,1 C 95 % 1005,2 hPa 0,0 l/m 0 min 2 min 41 W/m 3,2 km/h (1 Bft) 97,87 %
19.10.2019 15:08 13,2 C 11,7 C 11,7 C 95 % 1005,1 hPa 0,0 l/m 0 min 2 min 58 W/m 3,2 km/h (1 Bft) 97,83 %
19.10.2019 15:10 13,2 C 11,7 C 11,1 C 95 % 1005,1 hPa 0,0 l/m 0 min 2 min 63 W/m 6,4 km/h (2 Bft) 97,87 %
19.10.2019 15:12 13,2 C 11,7 C 11,1 C 95 % 1005,2 hPa 0,0 l/m 0 min 2 min 63 W/m 9,7 km/h (2 Bft) 95,74 %
19.10.2019 15:14 13,2 C 11,7 C 11,7 C 95 % 1005,2 hPa 0,2 l/m 0 min 2 min 65 W/m 3,2 km/h (1 Bft) 95,74 %
19.10.2019 15:16 13,2 C 11,7 C 11,7 C 95 % 1005,2 hPa 0,0 l/m 0 min 2 min 66 W/m 9,7 km/h (2 Bft) 97,87 %
19.10.2019 15:18 13,2 C 11,7 C 11,7 C 95 % 1005,2 hPa 0,0 l/m 0 min 2 min 61 W/m 9,7 km/h (2 Bft) 97,87 %
19.10.2019 15:20 13,2 C 11,7 C 11,7 C 96 % 1005,1 hPa 0,0 l/m 0 min 2 min 52 W/m 6,4 km/h (2 Bft) 95,65 %
19.10.2019 15:22 13,2 C 11,7 C 11,7 C 96 % 1005,1 hPa 0,0 l/m 0 min 2 min 40 W/m 6,4 km/h (2 Bft) 97,87 %
19.10.2019 15:24 13,2 C 11,7 C 11,7 C 96 % 1005,0 hPa 0,0 l/m 0 min 2 min 49 W/m 0,0 km/h (0 Bft) 97,87 %
19.10.2019 15:26 13,2 C 11,7 C 11,7 C 96 % 1005,1 hPa 0,0 l/m 0 min 2 min 52 W/m 6,4 km/h (2 Bft) 97,87 %
19.10.2019 15:28 13,2 C 11,7 C 11,7 C 96 % 1005,1 hPa 0,2 l/m 0 min 2 min 44 W/m 3,2 km/h (1 Bft) 97,87 %
19.10.2019 15:30 13,2 C 11,7 C 11,7 C 96 % 1005,1 hPa 0,0 l/m 0 min 2 min 33 W/m 0,0 km/h (0 Bft) 97,87 %
19.10.2019 15:32 13,2 C 11,7 C 11,7 C 96 % 1005,1 hPa 0,2 l/m 0 min 2 min 28 W/m 0,0 km/h (0 Bft) 95,65 %
19.10.2019 15:34 13,2 C 11,7 C 11,7 C 96 % 1005,1 hPa 0,0 l/m 0 min 2 min 29 W/m 3,2 km/h (1 Bft) 100,00 %
19.10.2019 15:36 13,2 C 11,7 C 11,7 C 96 % 1005,1 hPa 0,0 l/m 0 min 2 min 26 W/m 3,2 km/h (1 Bft) 100,00 %
19.10.2019 15:38 13,2 C 11,7 C 11,7 C 96 % 1005,1 hPa 0,2 l/m 0 min 2 min 20 W/m 3,2 km/h (1 Bft) 100,00 %
19.10.2019 15:40 13,2 C 11,7 C 11,7 C 96 % 1005,3 hPa 0,0 l/m 0 min 2 min 12 W/m 6,4 km/h (2 Bft) 97,87 %
19.10.2019 15:42 13,2 C 11,7 C 11,7 C 96 % 1005,3 hPa 0,2 l/m 0 min 2 min 10 W/m 3,2 km/h (1 Bft) 93,62 %
19.10.2019 15:44 13,2 C 11,7 C 11,7 C 96 % 1005,2 hPa 0,4 l/m 0 min 2 min 23 W/m 3,2 km/h (1 Bft) 97,83 %
19.10.2019 15:46 13,2 C 11,7 C 11,7 C 96 % 1005,2 hPa 0,0 l/m 0 min 2 min 39 W/m 3,2 km/h (1 Bft) 97,87 %
19.10.2019 15:48 13,2 C 11,7 C 11,7 C 96 % 1005,2 hPa 0,0 l/m 0 min 2 min 39 W/m 3,2 km/h (1 Bft) 97,87 %
19.10.2019 15:50 13,2 C 11,7 C 11,7 C 96 % 1005,2 hPa 0,0 l/m 0 min 2 min 38 W/m 3,2 km/h (1 Bft) 97,87 %
19.10.2019 15:52 13,2 C 11,7 C 11,7 C 96 % 1005,2 hPa 0,2 l/m 0 min 2 min 37 W/m 3,2 km/h (1 Bft) 93,62 %
19.10.2019 15:54 13,2 C 11,7 C 11,7 C 96 % 1005,2 hPa 0,0 l/m 0 min 2 min 42 W/m 3,2 km/h (1 Bft) 97,87 %
19.10.2019 15:56 13,2 C 11,7 C 11,7 C 96 % 1005,2 hPa 0,0 l/m 0 min 2 min 51 W/m 3,2 km/h (1 Bft) 97,83 %
19.10.2019 15:58 13,2 C 11,7 C 11,7 C 96 % 1005,2 hPa 0,0 l/m 0 min 2 min 50 W/m 3,2 km/h (1 Bft) 95,74 %
19.10.2019 16:00 13,2 C 12,2 C 11,7 C 96 % 1005,2 hPa 0,0 l/m 0 min 2 min 49 W/m 3,2 km/h (1 Bft) 93,62 %
19.10.2019 16:02 13,2 C 11,7 C 11,7 C 96 % 1005,3 hPa 0,0 l/m 0 min 2 min 47 W/m 12,9 km/h (3 Bft) 95,74 %
19.10.2019 16:04 13,2 C 11,7 C 11,7 C 96 % 1005,2 hPa 0,0 l/m 0 min 2 min 48 W/m 6,4 km/h (2 Bft) 95,74 %
19.10.2019 16:06 13,2 C 12,2 C 11,7 C 97 % 1005,2 hPa 0,0 l/m 0 min 2 min 51 W/m 6,4 km/h (2 Bft) 95,74 %
19.10.2019 16:08 13,2 C 12,2 C 11,7 C 97 % 1005,1 hPa 0,0 l/m 0 min 2 min 53 W/m 6,4 km/h (2 Bft) 95,65 %
19.10.2019 16:10 13,2 C 12,2 C 11,7 C 97 % 1005,1 hPa 0,0 l/m 0 min 2 min 54 W/m 3,2 km/h (1 Bft) 93,62 %
19.10.2019 16:12 13,2 C 11,7 C 11,7 C 97 % 1005,1 hPa 0,0 l/m 0 min 0 min 52 W/m 9,7 km/h (2 Bft) 95,74 %
19.10.2019 16:14 13,2 C 12,2 C 11,7 C 97 % 1005,1 hPa 0,2 l/m 0 min 2 min 45 W/m 3,2 km/h (1 Bft) 95,74 %
19.10.2019 16:16 13,2 C 12,2 C 11,7 C 97 % 1005,2 hPa 0,0 l/m 0 min 2 min 38 W/m 0,0 km/h (0 Bft) 93,62 %
19.10.2019 16:18 13,2 C 12,2 C 11,7 C 97 % 1005,3 hPa 0,0 l/m 0 min 2 min 34 W/m 0,0 km/h (0 Bft) 95,65 %
19.10.2019 16:20 13,2 C 11,7 C 11,7 C 97 % 1005,3 hPa 0,0 l/m 0 min 0 min 32 W/m 0,0 km/h (0 Bft) 95,74 %
19.10.2019 16:22 13,2 C 11,7 C 11,7 C 97 % 1005,2 hPa 0,0 l/m 0 min 2 min 32 W/m 0,0 km/h (0 Bft) 97,87 %
19.10.2019 16:24 13,2 C 11,7 C 11,7 C 97 % 1005,3 hPa 0,0 l/m 0 min 2 min 31 W/m 0,0 km/h (0 Bft) 97,87 %
19.10.2019 16:26 13,2 C 11,7 C 11,7 C 97 % 1005,3 hPa 0,0 l/m 0 min 2 min 28 W/m 0,0 km/h (0 Bft) 97,87 %
19.10.2019 16:28 13,2 C 11,7 C 11,7 C 97 % 1005,4 hPa 0,0 l/m 0 min 2 min 26 W/m 0,0 km/h (0 Bft) 95,74 %
19.10.2019 16:30 13,2 C 11,7 C 11,7 C 97 % 1005,3 hPa 0,0 l/m 0 min 2 min 27 W/m 0,0 km/h (0 Bft) 97,83 %
19.10.2019 16:32 13,2 C 11,7 C 11,7 C 97 % 1005,3 hPa 0,0 l/m 0 min 2 min 26 W/m 0,0 km/h (0 Bft) 95,74 %
19.10.2019 16:34 13,2 C 11,7 C 11,7 C 97 % 1005,4 hPa 0,0 l/m 0 min 2 min 26 W/m 0,0 km/h (0 Bft) 97,87 %
19.10.2019 16:36 13,2 C 11,7 C 11,7 C 97 % 1005,3 hPa 0,0 l/m 0 min 2 min 26 W/m 0,0 km/h (0 Bft) 97,87 %
19.10.2019 16:38 13,2 C 11,7 C 11,7 C 97 % 1005,4 hPa 0,0 l/m 0 min 2 min 20 W/m 0,0 km/h (0 Bft) 97,87 %
19.10.2019 16:40 13,2 C 11,7 C 11,7 C 97 % 1005,4 hPa 0,2 l/m 0 min 2 min 18 W/m 0,0 km/h (0 Bft) 95,74 %
19.10.2019 16:42 13,2 C 11,7 C 11,7 C 97 % 1005,3 hPa 0,0 l/m 0 min 2 min 22 W/m 0,0 km/h (0 Bft) 97,83 %
19.10.2019 16:44 13,2 C 11,7 C 11,7 C 97 % 1005,3 hPa 0,0 l/m 0 min 2 min 24 W/m 0,0 km/h (0 Bft) 95,74 %
19.10.2019 16:46 13,2 C 11,7 C 11,7 C 97 % 1005,3 hPa 0,0 l/m 0 min 2 min 26 W/m 0,0 km/h (0 Bft) 95,74 %
19.10.2019 16:48 13,2 C 11,7 C 11,7 C 97 % 1005,3 hPa 0,0 l/m 0 min 2 min 32 W/m 0,0 km/h (0 Bft) 97,87 %
19.10.2019 16:50 13,2 C 11,7 C 11,7 C 97 % 1005,3 hPa 0,2 l/m 0 min 2 min 33 W/m 0,0 km/h (0 Bft) 97,87 %
19.10.2019 16:52 13,2 C 12,2 C 11,7 C 97 % 1005,4 hPa 0,0 l/m 0 min 2 min 29 W/m 0,0 km/h (0 Bft) 100,00 %
19.10.2019 16:54 13,2 C 12,2 C 11,7 C 97 % 1005,4 hPa 0,0 l/m 0 min 2 min 20 W/m 0,0 km/h (0 Bft) 100,00 %
19.10.2019 16:56 13,2 C 12,2 C 11,7 C 97 % 1005,3 hPa 0,0 l/m 0 min 2 min 21 W/m 0,0 km/h (0 Bft) 100,00 %
19.10.2019 16:58 13,2 C 12,2 C 11,7 C 97 % 1005,2 hPa 0,0 l/m 0 min 2 min 28 W/m 3,2 km/h (1 Bft) 100,00 %
19.10.2019 17:00 13,2 C 11,7 C 11,7 C 97 % 1005,1 hPa 0,0 l/m 0 min 2 min 29 W/m 6,4 km/h (2 Bft) 97,87 %
19.10.2019 17:02 13,2 C 11,7 C 11,7 C 97 % 1005,2 hPa 0,0 l/m 0 min 2 min 26 W/m 3,2 km/h (1 Bft) 95,74 %
19.10.2019 17:04 13,2 C 11,7 C 11,7 C 97 % 1005,2 hPa 0,0 l/m 0 min 0 min 25 W/m 6,4 km/h (2 Bft) 100,00 %
19.10.2019 17:06 13,2 C 11,7 C 11,7 C 97 % 1005,3 hPa 0,0 l/m 0 min 0 min 22 W/m 6,4 km/h (2 Bft) 100,00 %
19.10.2019 17:08 13,2 C 11,7 C 11,7 C 97 % 1005,3 hPa 0,0 l/m 0 min 2 min 19 W/m 6,4 km/h (2 Bft) 100,00 %
19.10.2019 17:10 13,2 C 11,7 C 11,7 C 97 % 1005,3 hPa 0,0 l/m 0 min 2 min 18 W/m 6,4 km/h (2 Bft) 100,00 %
19.10.2019 17:12 13,2 C 11,7 C 11,7 C 97 % 1005,4 hPa 0,0 l/m 0 min 2 min 21 W/m 3,2 km/h (1 Bft) 100,00 %
19.10.2019 17:14 13,2 C 11,7 C 11,7 C 97 % 1005,4 hPa 0,0 l/m 0 min 2 min 21 W/m 6,4 km/h (2 Bft) 100,00 %
19.10.2019 17:16 13,2 C 11,7 C 11,7 C 97 % 1005,4 hPa 0,0 l/m 0 min 2 min 16 W/m 3,2 km/h (1 Bft) 100,00 %
19.10.2019 17:18 13,2 C 11,7 C 11,7 C 97 % 1005,3 hPa 0,0 l/m 0 min 2 min 17 W/m 6,4 km/h (2 Bft) 100,00 %
19.10.2019 17:20 13,1 C 11,7 C 11,7 C 97 % 1005,4 hPa 0,0 l/m 0 min 2 min 22 W/m 12,9 km/h (3 Bft) 97,87 %
19.10.2019 17:22 13,1 C 11,7 C 11,7 C 97 % 1005,5 hPa 0,0 l/m 0 min 0 min 24 W/m 16,1 km/h (3 Bft) 100,00 %
19.10.2019 17:24 13,1 C 11,7 C 11,1 C 97 % 1005,5 hPa 0,0 l/m 0 min 0 min 21 W/m 6,4 km/h (2 Bft) 100,00 %
19.10.2019 17:26 13,1 C 11,7 C 11,1 C 97 % 1005,5 hPa 0,0 l/m 0 min 2 min 20 W/m 6,4 km/h (2 Bft) 100,00 %
19.10.2019 17:28 13,1 C 11,7 C 11,1 C 97 % 1005,4 hPa 0,0 l/m 0 min 0 min 23 W/m 6,4 km/h (2 Bft) 100,00 %
19.10.2019 17:30 13,1 C 11,7 C 11,1 C 98 % 1005,5 hPa 0,0 l/m 0 min 2 min 25 W/m 12,9 km/h (3 Bft) 97,87 %
19.10.2019 17:32 13,1 C 11,7 C 11,1 C 98 % 1005,5 hPa 0,0 l/m 0 min 0 min 25 W/m 12,9 km/h (3 Bft) 97,87 %
19.10.2019 17:34 13,1 C 11,7 C 11,1 C 98 % 1005,6 hPa 0,0 l/m 0 min 0 min 24 W/m 16,1 km/h (3 Bft) 100,00 %
19.10.2019 17:36 13,0 C 11,7 C 11,1 C 98 % 1005,6 hPa 0,0 l/m 0 min 0 min 23 W/m 16,1 km/h (3 Bft) 100,00 %
19.10.2019 17:38 13,0 C 11,7 C 11,1 C 98 % 1005,6 hPa 0,0 l/m 0 min 0 min 22 W/m 16,1 km/h (3 Bft) 100,00 %
19.10.2019 17:40 12,9 C 11,1 C 11,1 C 98 % 1005,6 hPa 0,0 l/m 0 min 0 min 20 W/m 22,5 km/h (4 Bft) 100,00 %
19.10.2019 17:42 12,8 C 11,1 C 11,1 C 97 % 1005,5 hPa 0,0 l/m 0 min 0 min 19 W/m 6,4 km/h (2 Bft) 100,00 %
19.10.2019 17:44 12,8 C 11,1 C 11,1 C 97 % 1005,5 hPa 0,0 l/m 0 min 0 min 19 W/m 12,9 km/h (3 Bft) 100,00 %
19.10.2019 17:46 12,8 C 11,1 C 10,6 C 97 % 1005,5 hPa 0,0 l/m 0 min 0 min 21 W/m 22,5 km/h (4 Bft) 100,00 %
19.10.2019 17:48 12,7 C 11,1 C 10,6 C 97 % 1005,6 hPa 0,0 l/m 0 min 0 min 23 W/m 16,1 km/h (3 Bft) 100,00 %
19.10.2019 17:50 12,7 C 11,1 C 10,6 C 97 % 1005,6 hPa 0,0 l/m 0 min 0 min 24 W/m 6,4 km/h (2 Bft) 97,87 %
19.10.2019 17:52 12,6 C 11,1 C 10,6 C 97 % 1005,6 hPa 0,0 l/m 0 min 0 min 24 W/m 12,9 km/h (3 Bft) 100,00 %
19.10.2019 17:54 12,6 C 11,1 C 10,6 C 97 % 1005,6 hPa 0,0 l/m 0 min 0 min 20 W/m 6,4 km/h (2 Bft) 97,87 %
19.10.2019 17:56 12,6 C 11,1 C 10,6 C 97 % 1005,7 hPa 0,0 l/m 0 min 0 min 18 W/m 12,9 km/h (3 Bft) 97,87 %
19.10.2019 17:58 12,6 C 11,1 C 10,6 C 97 % 1005,6 hPa 0,0 l/m 0 min 0 min 15 W/m 6,4 km/h (2 Bft) 97,87 %
19.10.2019 18:00 12,6 C 11,1 C 10,6 C 97 % 1005,6 hPa 0,0 l/m 0 min 0 min 16 W/m 6,4 km/h (2 Bft) 97,87 %
19.10.2019 18:02 12,6 C 11,1 C 10,6 C 97 % 1005,6 hPa 0,0 l/m 0 min 0 min 16 W/m 6,4 km/h (2 Bft) 93,62 %
19.10.2019 18:04 12,6 C 11,1 C 10,6 C 97 % 1005,6 hPa 0,0 l/m 0 min 0 min 15 W/m 12,9 km/h (3 Bft) 95,65 %
19.10.2019 18:08 12,5 C 11,1 C 10,6 C 97 % 1005,7 hPa 0,0 l/m 0 min 0 min 14 W/m 6,4 km/h (2 Bft) 97,87 %
19.10.2019 18:10 12,5 C 11,1 C 10,6 C 97 % 1005,8 hPa 0,0 l/m 0 min 0 min 16 W/m 6,4 km/h (2 Bft) 97,87 %
19.10.2019 18:12 12,5 C 11,1 C 10,6 C 97 % 1005,8 hPa 0,0 l/m 0 min 0 min 16 W/m 3,2 km/h (1 Bft) 95,74 %
19.10.2019 18:14 12,5 C 11,1 C 10,6 C 97 % 1005,8 hPa 0,0 l/m 0 min 0 min 16 W/m 3,2 km/h (1 Bft) 95,74 %
19.10.2019 18:16 12,5 C 11,1 C 10,6 C 97 % 1005,8 hPa 0,0 l/m 0 min 0 min 12 W/m 3,2 km/h (1 Bft) 95,65 %
19.10.2019 18:18 12,5 C 11,1 C 10,6 C 97 % 1005,8 hPa 0,0 l/m 0 min 0 min 11 W/m 6,4 km/h (2 Bft) 91,49 %
19.10.2019 18:20 12,4 C 11,1 C 10,6 C 97 % 1005,8 hPa 0,0 l/m 0 min 0 min 9 W/m 3,2 km/h (1 Bft) 95,74 %
19.10.2019 18:22 12,4 C 11,1 C 10,6 C 97 % 1005,7 hPa 0,0 l/m 0 min 0 min 8 W/m 0,0 km/h (0 Bft) 93,62 %
19.10.2019 18:24 12,4 C 11,1 C 10,6 C 97 % 1005,7 hPa 0,0 l/m 0 min 0 min 7 W/m 0,0 km/h (0 Bft) 93,62 %
19.10.2019 18:26 12,4 C 11,1 C 10,6 C 97 % 1005,8 hPa 0,0 l/m 0 min 0 min 6 W/m 0,0 km/h (0 Bft) 91,30 %
19.10.2019 18:28 12,4 C 11,1 C 10,6 C 97 % 1005,8 hPa 0,0 l/m 0 min 0 min 5 W/m 0,0 km/h (0 Bft) 95,74 %
19.10.2019 18:30 12,4 C 11,1 C 10,6 C 97 % 1005,8 hPa 0,0 l/m 0 min 0 min 0 W/m 0,0 km/h (0 Bft) 95,74 %
19.10.2019 18:32 12,4 C 11,1 C 10,6 C 97 % 1005,8 hPa 0,0 l/m 0 min 0 min 0 W/m 0,0 km/h (0 Bft) 95,74 %
19.10.2019 18:34 12,4 C 11,1 C 10,6 C 97 % 1005,8 hPa 0,0 l/m 0 min 0 min 0 W/m 0,0 km/h (0 Bft) 95,74 %
19.10.2019 18:36 12,4 C 11,1 C 10,6 C 97 % 1005,8 hPa 0,0 l/m 0 min 0 min 0 W/m 0,0 km/h (0 Bft) 93,62 %
19.10.2019 18:38 12,4 C 11,1 C 10,6 C 97 % 1005,8 hPa 0,0 l/m 0 min 0 min 0 W/m 0,0 km/h (0 Bft) 95,65 %
19.10.2019 18:40 12,4 C 11,1 C 10,6 C 98 % 1005,8 hPa 0,0 l/m 0 min 0 min 0 W/m 6,4 km/h (2 Bft) 93,62 %
19.10.2019 18:42 12,4 C 11,1 C 10,6 C 98 % 1005,8 hPa 0,0 l/m 0 min 0 min 0 W/m 3,2 km/h (1 Bft) 95,74 %
19.10.2019 18:44 12,3 C 11,1 C 10,6 C 98 % 1005,7 hPa 0,0 l/m 0 min 0 min 0 W/m 3,2 km/h (1 Bft) 95,74 %
19.10.2019 18:46 12,3 C 11,1 C 10,6 C 98 % 1005,7 hPa 0,0 l/m 0 min 0 min 0 W/m 3,2 km/h (1 Bft) 95,74 %
19.10.2019 18:48 12,3 C 11,1 C 10,6 C 98 % 1005,8 hPa 0,0 l/m 0 min 0 min 0 W/m 3,2 km/h (1 Bft) 95,74 %
19.10.2019 18:50 12,3 C 11,1 C 10,6 C 98 % 1005,8 hPa 0,0 l/m 0 min 0 min 0 W/m 0,0 km/h (0 Bft) 93,48 %
19.10.2019 18:52 12,3 C 11,1 C 10,6 C 98 % 1005,9 hPa 0,0 l/m 0 min 0 min 0 W/m 3,2 km/h (1 Bft) 95,74 %
19.10.2019 18:54 12,3 C 11,1 C 10,6 C 98 % 1005,9 hPa 0,0 l/m 0 min 0 min 0 W/m 6,4 km/h (2 Bft) 97,87 %
19.10.2019 18:56 12,3 C 11,1 C 10,6 C 98 % 1005,9 hPa 0,0 l/m 0 min 0 min 0 W/m 3,2 km/h (1 Bft) 95,74 %
19.10.2019 18:58 12,3 C 11,1 C 10,6 C 98 % 1005,9 hPa 0,0 l/m 0 min 0 min 0 W/m 3,2 km/h (1 Bft) 97,87 %
19.10.2019 19:00 12,3 C 11,1 C 10,6 C 98 % 1006,0 hPa 0,0 l/m 0 min 0 min 0 W/m 0,0 km/h (0 Bft) 97,87 %
19.10.2019 19:02 12,3 C 11,1 C 10,6 C 98 % 1006,0 hPa 0,0 l/m 0 min 0 min 0 W/m 3,2 km/h (1 Bft) 97,83 %
19.10.2019 19:04 12,2 C 11,1 C 10,6 C 98 % 1006,0 hPa 0,0 l/m 0 min 0 min 0 W/m 3,2 km/h (1 Bft) 97,87 %
19.10.2019 19:06 12,2 C 11,1 C 10,6 C 98 % 1006,0 hPa 0,0 l/m 0 min 0 min 0 W/m 0,0 km/h (0 Bft) 95,74 %
19.10.2019 19:08 12,2 C 11,1 C 10,6 C 98 % 1005,9 hPa 0,0 l/m 0 min 0 min 0 W/m 0,0 km/h (0 Bft) 95,74 %
19.10.2019 19:10 12,2 C 11,1 C 10,6 C 98 % 1005,9 hPa 0,0 l/m 0 min 0 min 0 W/m 0,0 km/h (0 Bft) 97,87 %
19.10.2019 19:12 12,2 C 11,1 C 10,6 C 98 % 1005,9 hPa 0,0 l/m 0 min 0 min 0 W/m 0,0 km/h (0 Bft) 97,87 %
19.10.2019 19:14 12,2 C 11,1 C 10,6 C 98 % 1005,9 hPa 0,0 l/m 0 min 0 min 0 W/m 0,0 km/h (0 Bft) 97,83 %
19.10.2019 19:16 12,2 C 11,1 C 10,6 C 98 % 1006,0 hPa 0,0 l/m 0 min 0 min 0 W/m 6,4 km/h (2 Bft) 95,74 %
19.10.2019 19:18 12,2 C 11,1 C 10,6 C 98 % 1006,1 hPa 0,0 l/m 0 min 0 min 0 W/m 6,4 km/h (2 Bft) 97,87 %
19.10.2019 19:20 12,2 C 11,1 C 10,6 C 98 % 1006,2 hPa 0,0 l/m 0 min 0 min 0 W/m 6,4 km/h (2 Bft) 97,87 %
19.10.2019 19:22 12,2 C 11,1 C 10,6 C 98 % 1006,2 hPa 0,0 l/m 0 min 0 min 0 W/m 6,4 km/h (2 Bft) 95,74 %
19.10.2019 19:24 12,2 C 11,1 C 10,6 C 98 % 1006,1 hPa 0,0 l/m 0 min 0 min 0 W/m 0,0 km/h (0 Bft) 93,48 %
19.10.2019 19:26 12,2 C 11,1 C 10,6 C 98 % 1006,1 hPa 0,0 l/m 0 min 0 min 0 W/m 6,4 km/h (2 Bft) 97,87 %
19.10.2019 19:28 12,1 C 11,1 C 10,6 C 98 % 1006,1 hPa 0,0 l/m 0 min 0 min 0 W/m 3,2 km/h (1 Bft) 93,62 %
19.10.2019 19:30 12,1 C 11,1 C 10,6 C 98 % 1006,2 hPa 0,0 l/m 0 min 0 min 0 W/m 6,4 km/h (2 Bft) 97,87 %
19.10.2019 19:32 12,1 C 11,1 C 10,6 C 98 % 1006,1 hPa 0,0 l/m 0 min 0 min 0 W/m 3,2 km/h (1 Bft) 97,87 %
19.10.2019 19:34 12,1 C 11,1 C 10,6 C 98 % 1006,1 hPa 0,0 l/m 0 min 0 min 0 W/m 6,4 km/h (2 Bft) 97,87 %
19.10.2019 19:36 12,1 C 11,1 C 10,6 C 98 % 1006,1 hPa 0,0 l/m 0 min 0 min 0 W/m 0,0 km/h (0 Bft) 97,83 %
19.10.2019 19:38 12,1 C 10,6 C 10,6 C 98 % 1006,0 hPa 0,0 l/m 0 min 0 min 0 W/m 0,0 km/h (0 Bft) 97,87 %
19.10.2019 19:40 12,1 C 10,6 C 10,6 C 98 % 1006,0 hPa 0,0 l/m 0 min 0 min 0 W/m 0,0 km/h (0 Bft) 97,87 %
19.10.2019 19:42 12,1 C 10,6 C 10,6 C 98 % 1006,1 hPa 0,0 l/m 0 min 0 min 0 W/m 0,0 km/h (0 Bft) 95,74 %
19.10.2019 19:44 12,1 C 10,6 C 10,6 C 98 % 1006,0 hPa 0,0 l/m 0 min 0 min 0 W/m 0,0 km/h (0 Bft) 97,87 %
19.10.2019 19:46 12,1 C 10,6 C 10,6 C 98 % 1006,0 hPa 0,0 l/m 0 min 0 min 0 W/m 0,0 km/h (0 Bft) 97,87 %
19.10.2019 19:48 12,1 C 10,6 C 10,6 C 98 % 1006,0 hPa 0,0 l/m 0 min 0 min 0 W/m 0,0 km/h (0 Bft) 97,83 %
19.10.2019 19:50 12,1 C 10,6 C 10,6 C 98 % 1006,1 hPa 0,0 l/m 0 min 0 min 0 W/m 0,0 km/h (0 Bft) 97,87 %
19.10.2019 19:52 12,1 C 10,6 C 10,6 C 98 % 1006,2 hPa 0,0 l/m 0 min 0 min 0 W/m 0,0 km/h (0 Bft) 100,00 %
19.10.2019 19:53 12,1 C 10,6 C 10,6 C 98 % 1006,2 hPa 0,0 l/m 0 min 0 min 0 W/m 3,2 km/h (1 Bft) 95,74 %
19.10.2019 19:56 12,0 C 10,6 C 10,6 C 98 % 1006,2 hPa 0,0 l/m 0 min 0 min 0 W/m 3,2 km/h (1 Bft) 100,00 %
19.10.2019 19:58 12,0 C 10,6 C 10,6 C 98 % 1006,3 hPa 0,0 l/m 0 min 0 min 0 W/m 3,2 km/h (1 Bft) 100,00 %
19.10.2019 20:00 12,0 C 10,6 C 10,6 C 98 % 1006,2 hPa 0,0 l/m 0 min 0 min 0 W/m 0,0 km/h (0 Bft) 100,00 %
19.10.2019 20:02 12,0 C 10,6 C 10,6 C 98 % 1006,2 hPa 0,0 l/m 0 min 0 min 0 W/m 0,0 km/h (0 Bft) 97,87 %
19.10.2019 20:04 12,0 C 10,6 C 10,6 C 98 % 1006,3 hPa 0,0 l/m 0 min 0 min 0 W/m 0,0 km/h (0 Bft) 100,00 %
19.10.2019 20:06 12,0 C 10,6 C 10,6 C 98 % 1006,3 hPa 0,0 l/m 0 min 0 min 0 W/m 0,0 km/h (0 Bft) 100,00 %
19.10.2019 20:08 11,9 C 10,6 C 10,6 C 98 % 1006,3 hPa 0,0 l/m 0 min 0 min 0 W/m 0,0 km/h (0 Bft) 100,00 %
19.10.2019 20:10 11,9 C 10,6 C 10,6 C 98 % 1006,3 hPa 0,0 l/m 0 min 0 min 0 W/m 3,2 km/h (1 Bft) 100,00 %
19.10.2019 20:12 11,9 C 10,6 C 10,6 C 98 % 1006,2 hPa 0,0 l/m 0 min 0 min 0 W/m 3,2 km/h (1 Bft) 100,00 %
19.10.2019 20:14 11,9 C 10,6 C 10,6 C 98 % 1006,2 hPa 0,0 l/m 0 min 0 min 0 W/m 3,2 km/h (1 Bft) 97,87 %
19.10.2019 20:16 11,9 C 10,6 C 10,6 C 98 % 1006,2 hPa 0,0 l/m 0 min 0 min 0 W/m 0,0 km/h (0 Bft) 97,87 %
19.10.2019 20:18 11,9 C 10,6 C 10,6 C 98 % 1006,2 hPa 0,0 l/m 0 min 0 min 0 W/m 0,0 km/h (0 Bft) 100,00 %
19.10.2019 20:20 11,9 C 10,6 C 10,0 C 98 % 1006,2 hPa 0,0 l/m 0 min 0 min 0 W/m 3,2 km/h (1 Bft) 100,00 %
19.10.2019 20:22 11,9 C 10,6 C 10,0 C 98 % 1006,2 hPa 0,0 l/m 0 min 0 min 0 W/m 3,2 km/h (1 Bft) 100,00 %
19.10.2019 20:24 11,9 C 10,6 C 10,0 C 98 % 1006,2 hPa 0,0 l/m 0 min 0 min 0 W/m 3,2 km/h (1 Bft) 100,00 %
19.10.2019 20:26 11,9 C 10,6 C 10,0 C 98 % 1006,2 hPa 0,0 l/m 0 min 0 min 0 W/m 3,2 km/h (1 Bft) 97,87 %
19.10.2019 20:28 11,8 C 10,6 C 10,0 C 98 % 1006,2 hPa 0,0 l/m 0 min 0 min 0 W/m 0,0 km/h (0 Bft) 100,00 %
19.10.2019 20:30 11,8 C 10,6 C 10,0 C 98 % 1006,2 hPa 0,0 l/m 0 min 0 min 0 W/m 3,2 km/h (1 Bft) 100,00 %
19.10.2019 20:32 11,8 C 10,6 C 10,0 C 98 % 1006,2 hPa 0,0 l/m 0 min 0 min 0 W/m 6,4 km/h (2 Bft) 100,00 %
19.10.2019 20:34 11,8 C 10,6 C 10,0 C 98 % 1006,3 hPa 0,0 l/m 0 min 0 min 0 W/m 3,2 km/h (1 Bft) 97,83 %
19.10.2019 20:36 11,8 C 10,6 C 10,0 C 98 % 1006,3 hPa 0,0 l/m 0 min 0 min 0 W/m 3,2 km/h (1 Bft) 100,00 %
19.10.2019 20:38 11,8 C 10,6 C 10,0 C 98 % 1006,3 hPa 0,0 l/m 0 min 0 min 0 W/m 0,0 km/h (0 Bft) 100,00 %
19.10.2019 20:40 11,8 C 10,6 C 10,0 C 98 % 1006,3 hPa 0,0 l/m 0 min 0 min 0 W/m 3,2 km/h (1 Bft) 100,00 %
19.10.2019 20:42 11,8 C 10,6 C 10,0 C 98 % 1006,3 hPa 0,0 l/m 0 min 0 min 0 W/m 0,0 km/h (0 Bft) 97,87 %
19.10.2019 20:44 11,8 C 10,6 C 10,0 C 98 % 1006,3 hPa 0,0 l/m 0 min 0 min 0 W/m 0,0 km/h (0 Bft) 100,00 %
19.10.2019 20:46 11,8 C 10,6 C 10,0 C 98 % 1006,4 hPa 0,0 l/m 0 min 0 min 0 W/m 0,0 km/h (0 Bft) 100,00 %
19.10.2019 20:48 11,8 C 10,6 C 10,0 C 98 % 1006,4 hPa 0,0 l/m 0 min 0 min 0 W/m 0,0 km/h (0 Bft) 100,00 %
19.10.2019 20:50 11,8 C 10,6 C 10,0 C 98 % 1006,4 hPa 0,0 l/m 0 min 0 min 0 W/m 0,0 km/h (0 Bft) 97,87 %
19.10.2019 20:52 11,8 C 10,6 C 10,0 C 98 % 1006,5 hPa 0,0 l/m 0 min 0 min 0 W/m 0,0 km/h (0 Bft) 97,87 %
19.10.2019 20:54 11,8 C 10,6 C 10,0 C 98 % 1006,6 hPa 0,0 l/m 0 min 0 min 0 W/m 0,0 km/h (0 Bft) 95,74 %
19.10.2019 20:56 11,7 C 10,6 C 10,0 C 98 % 1006,6 hPa 0,0 l/m 0 min 0 min 0 W/m 0,0 km/h (0 Bft) 97,87 %
19.10.2019 20:58 11,7 C 10,6 C 10,0 C 98 % 1006,6 hPa 0,0 l/m 0 min 0 min 0 W/m 0,0 km/h (0 Bft) 97,83 %
19.10.2019 21:00 11,7 C 10,6 C 10,0 C 98 % 1006,6 hPa 0,0 l/m 0 min 0 min 0 W/m 0,0 km/h (0 Bft) 95,74 %
19.10.2019 21:02 11,7 C 10,6 C 10,0 C 98 % 1006,7 hPa 0,0 l/m 0 min 0 min 0 W/m 0,0 km/h (0 Bft) 97,87 %
19.10.2019 21:04 11,7 C 10,6 C 10,0 C 98 % 1006,7 hPa 0,0 l/m 0 min 0 min 0 W/m 0,0 km/h (0 Bft) 97,87 %
19.10.2019 21:06 11,7 C 10,6 C 10,0 C 98 % 1006,7 hPa 0,0 l/m 0 min 0 min 0 W/m 0,0 km/h (0 Bft) 97,87 %
19.10.2019 21:08 11,7 C 10,6 C 10,0 C 98 % 1006,7 hPa 0,0 l/m 0 min 0 min 0 W/m 0,0 km/h (0 Bft) 97,83 %
19.10.2019 21:10 11,7 C 10,6 C 10,0 C 98 % 1006,7 hPa 0,0 l/m 0 min 0 min 0 W/m 0,0 km/h (0 Bft) 97,87 %
19.10.2019 21:12 11,7 C 10,6 C 10,0 C 98 % 1006,7 hPa 0,0 l/m 0 min 0 min 0 W/m 0,0 km/h (0 Bft) 93,62 %
19.10.2019 21:14 11,7 C 10,6 C 10,0 C 98 % 1006,7 hPa 0,0 l/m 0 min 0 min 0 W/m 0,0 km/h (0 Bft) 95,74 %
19.10.2019 21:16 11,7 C 10,6 C 10,0 C 98 % 1006,7 hPa 0,0 l/m 0 min 0 min 0 W/m 0,0 km/h (0 Bft) 95,74 %
19.10.2019 21:18 11,7 C 10,6 C 10,0 C 98 % 1006,7 hPa 0,0 l/m 0 min 0 min 0 W/m 0,0 km/h (0 Bft) 95,74 %
19.10.2019 21:20 11,7 C 10,6 C 10,0 C 98 % 1006,7 hPa 0,0 l/m 0 min 0 min 0 W/m 0,0 km/h (0 Bft) 95,74 %
19.10.2019 21:22 11,7 C 10,6 C 10,0 C 98 % 1006,7 hPa 0,0 l/m 0 min 0 min 0 W/m 0,0 km/h (0 Bft) 91,30 %
19.10.2019 21:24 11,7 C 10,6 C 10,0 C 98 % 1006,7 hPa 0,0 l/m 0 min 0 min 0 W/m 0,0 km/h (0 Bft) 95,74 %
19.10.2019 21:26 11,6 C 10,6 C 10,0 C 98 % 1006,8 hPa 0,0 l/m 0 min 0 min 0 W/m 0,0 km/h (0 Bft) 95,74 %
19.10.2019 21:28 11,6 C 10,6 C 10,0 C 98 % 1006,7 hPa 0,0 l/m 0 min 0 min 0 W/m 0,0 km/h (0 Bft) 93,62 %
19.10.2019 21:30 11,6 C 10,6 C 10,0 C 98 % 1006,7 hPa 0,0 l/m 0 min 0 min 0 W/m 0,0 km/h (0 Bft) 95,74 %
19.10.2019 21:32 11,6 C 10,6 C 10,0 C 98 % 1006,7 hPa 0,0 l/m 0 min 0 min 0 W/m 0,0 km/h (0 Bft) 93,48 %
19.10.2019 21:34 11,6 C 10,6 C 10,0 C 98 % 1006,7 hPa 0,0 l/m 0 min 0 min 0 W/m 0,0 km/h (0 Bft) 97,87 %
19.10.2019 21:36 11,6 C 10,6 C 10,0 C 98 % 1006,8 hPa 0,0 l/m 0 min 0 min 0 W/m 0,0 km/h (0 Bft) 97,87 %
19.10.2019 21:38 11,6 C 10,6 C 10,0 C 98 % 1006,8 hPa 0,0 l/m 0 min 0 min 0 W/m 0,0 km/h (0 Bft) 97,92 %
19.10.2019 21:40 11,6 C 10,6 C 10,0 C 98 % 1006,8 hPa 0,0 l/m 0 min 0 min 0 W/m 12,9 km/h (3 Bft) 97,87 %
19.10.2019 21:42 11,6 C 10,6 C 10,0 C 98 % 1006,8 hPa 0,0 l/m 0 min 0 min 0 W/m 12,9 km/h (3 Bft) 95,65 %
19.10.2019 21:44 11,6 C 10,6 C 10,0 C 98 % 1006,8 hPa 0,0 l/m 0 min 0 min 0 W/m 3,2 km/h (1 Bft) 93,62 %
19.10.2019 21:46 11,6 C 10,6 C 10,0 C 98 % 1006,8 hPa 0,0 l/m 0 min 0 min 0 W/m 3,2 km/h (1 Bft) 95,74 %
19.10.2019 21:48 11,6 C 10,6 C 10,0 C 98 % 1006,7 hPa 0,0 l/m 0 min 0 min 0 W/m 0,0 km/h (0 Bft) 97,87 %
19.10.2019 21:50 11,6 C 10,6 C 10,0 C 98 % 1006,7 hPa 0,0 l/m 0 min 0 min 0 W/m 0,0 km/h (0 Bft) 95,74 %
19.10.2019 21:52 11,6 C 10,6 C 10,0 C 98 % 1006,7 hPa 0,0 l/m 0 min 0 min 0 W/m 0,0 km/h (0 Bft) 95,65 %
19.10.2019 21:54 11,6 C 10,6 C 10,0 C 98 % 1006,7 hPa 0,0 l/m 0 min 0 min 0 W/m 0,0 km/h (0 Bft) 95,74 %
19.10.2019 21:56 11,6 C 10,6 C 10,0 C 98 % 1006,7 hPa 0,0 l/m 0 min 0 min 0 W/m 6,4 km/h (2 Bft) 97,87 %
19.10.2019 21:58 11,6 C 10,6 C 10,0 C 98 % 1006,8 hPa 0,0 l/m 0 min 0 min 0 W/m 3,2 km/h (1 Bft) 97,87 %
19.10.2019 22:00 11,6 C 10,6 C 10,0 C 98 % 1006,8 hPa 0,0 l/m 0 min 0 min 0 W/m 3,2 km/h (1 Bft) 95,74 %
19.10.2019 22:02 11,5 C 10,6 C 10,0 C 98 % 1006,8 hPa 0,0 l/m 0 min 0 min 0 W/m 3,2 km/h (1 Bft) 95,74 %
19.10.2019 22:04 11,5 C 10,6 C 10,0 C 98 % 1006,9 hPa 0,0 l/m 0 min 0 min 0 W/m 0,0 km/h (0 Bft) 95,65 %
19.10.2019 22:06 11,5 C 10,6 C 10,0 C 98 % 1006,9 hPa 0,0 l/m 0 min 0 min 0 W/m 3,2 km/h (1 Bft) 95,74 %
19.10.2019 22:08 11,5 C 10,6 C 10,0 C 98 % 1006,9 hPa 0,0 l/m 0 min 0 min 0 W/m 3,2 km/h (1 Bft) 94,44 %
19.10.2019 22:10 11,4 C 10,6 C 10,0 C 98 % 1006,9 hPa 0,0 l/m 0 min 0 min 0 W/m 0,0 km/h (0 Bft) 97,83 %
19.10.2019 22:12 11,4 C 10,6 C 10,0 C 98 % 1007,0 hPa 0,0 l/m 0 min 0 min 0 W/m 3,2 km/h (1 Bft) 97,87 %
19.10.2019 22:14 11,4 C 10,6 C 10,0 C 99 % 1007,1 hPa 0,0 l/m 0 min 0 min 0 W/m 0,0 km/h (0 Bft) 97,87 %
19.10.2019 22:16 11,4 C 10,6 C 10,0 C 99 % 1007,1 hPa 0,0 l/m 0 min 0 min 0 W/m 3,2 km/h (1 Bft) 97,87 %
19.10.2019 22:18 11,4 C 10,6 C 10,0 C 99 % 1007,1 hPa 0,0 l/m 0 min 0 min 0 W/m 6,4 km/h (2 Bft) 97,87 %
19.10.2019 22:20 11,4 C 10,6 C 10,0 C 99 % 1007,0 hPa 0,0 l/m 0 min 0 min 0 W/m 0,0 km/h (0 Bft) 95,65 %
19.10.2019 22:22 11,4 C 10,6 C 10,0 C 99 % 1007,0 hPa 0,0 l/m 0 min 0 min 0 W/m 0,0 km/h (0 Bft) 93,62 %
19.10.2019 22:24 11,4 C 10,6 C 10,0 C 99 % 1006,9 hPa 0,0 l/m 0 min 0 min 0 W/m 3,2 km/h (1 Bft) 51,22 %
19.10.2019 22:26 11,4 C 10,6 C 10,0 C 99 % 1006,9 hPa 0,0 l/m 0 min 0 min 0 W/m 3,2 km/h (1 Bft) 97,87 %
19.10.2019 22:28 11,4 C 10,6 C 10,0 C 99 % 1006,9 hPa 0,0 l/m 0 min 0 min 0 W/m 0,0 km/h (0 Bft) 97,87 %
19.10.2019 22:30 11,4 C 10,6 C 10,0 C 99 % 1007,0 hPa 0,0 l/m 0 min 0 min 0 W/m 0,0 km/h (0 Bft) 97,87 %
19.10.2019 22:32 11,4 C 10,0 C 10,0 C 99 % 1006,9 hPa 0,0 l/m 0 min 0 min 0 W/m 0,0 km/h (0 Bft) 97,83 %
19.10.2019 22:34 11,4 C 10,0 C 10,0 C 99 % 1007,0 hPa 0,0 l/m 0 min 0 min 0 W/m 3,2 km/h (1 Bft) 97,87 %
19.10.2019 22:36 11,4 C 10,0 C 10,0 C 99 % 1007,1 hPa 0,0 l/m 0 min 0 min 0 W/m 0,0 km/h (0 Bft) 97,87 %
19.10.2019 22:38 11,4 C 10,0 C 10,0 C 99 % 1007,1 hPa 0,0 l/m 0 min 0 min 0 W/m 0,0 km/h (0 Bft) 97,87 %
19.10.2019 22:40 11,4 C 10,0 C 10,0 C 99 % 1007,2 hPa 0,0 l/m 0 min 0 min 0 W/m 0,0 km/h (0 Bft) 97,87 %
19.10.2019 22:42 11,4 C 10,0 C 10,0 C 99 % 1007,2 hPa 0,0 l/m 0 min 0 min 0 W/m 0,0 km/h (0 Bft) 95,74 %
19.10.2019 22:44 11,3 C 10,0 C 10,0 C 99 % 1007,3 hPa 0,0 l/m 0 min 0 min 0 W/m 0,0 km/h (0 Bft) 97,83 %
19.10.2019 22:46 11,3 C 10,0 C 10,0 C 99 % 1007,2 hPa 0,0 l/m 0 min 0 min 0 W/m 3,2 km/h (1 Bft) 97,87 %
19.10.2019 22:48 11,3 C 10,0 C 10,0 C 99 % 1007,2 hPa 0,0 l/m 0 min 0 min 0 W/m 3,2 km/h (1 Bft) 97,87 %
19.10.2019 22:50 11,3 C 10,0 C 10,0 C 99 % 1007,2 hPa 0,0 l/m 0 min 0 min 0 W/m 0,0 km/h (0 Bft) 95,74 %
19.10.2019 22:52 11,3 C 10,0 C 10,0 C 99 % 1007,2 hPa 0,0 l/m 0 min 0 min 0 W/m 0,0 km/h (0 Bft) 95,74 %
19.10.2019 22:54 11,3 C 10,0 C 10,0 C 99 % 1007,2 hPa 0,0 l/m 0 min 0 min 0 W/m 3,2 km/h (1 Bft) 100,00 %
19.10.2019 22:56 11,3 C 10,0 C 10,0 C 99 % 1007,3 hPa 0,0 l/m 0 min 0 min 0 W/m 3,2 km/h (1 Bft) 100,00 %
19.10.2019 22:58 11,3 C 10,0 C 10,0 C 99 % 1007,3 hPa 0,0 l/m 0 min 0 min 0 W/m 12,9 km/h (3 Bft) 100,00 %
19.10.2019 23:00 11,3 C 10,0 C 10,0 C 99 % 1007,2 hPa 0,0 l/m 0 min 0 min 0 W/m 6,4 km/h (2 Bft) 100,00 %
19.10.2019 23:02 11,3 C 10,0 C 10,0 C 99 % 1007,2 hPa 0,0 l/m 0 min 0 min 0 W/m 3,2 km/h (1 Bft) 100,00 %
19.10.2019 23:04 11,3 C 10,0 C 10,0 C 99 % 1007,3 hPa 0,0 l/m 0 min 0 min 0 W/m 6,4 km/h (2 Bft) 100,00 %
19.10.2019 23:06 11,3 C 10,0 C 10,0 C 99 % 1007,3 hPa 0,0 l/m 0 min 0 min 0 W/m 3,2 km/h (1 Bft) 100,00 %
19.10.2019 23:08 11,3 C 10,0 C 10,0 C 99 % 1007,3 hPa 0,0 l/m 0 min 0 min 0 W/m 3,2 km/h (1 Bft) 97,87 %
19.10.2019 23:10 11,3 C 10,0 C 10,0 C 99 % 1007,2 hPa 0,0 l/m 0 min 0 min 0 W/m 3,2 km/h (1 Bft) 100,00 %
19.10.2019 23:12 11,3 C 10,0 C 10,0 C 99 % 1007,3 hPa 0,0 l/m 0 min 0 min 0 W/m 6,4 km/h (2 Bft) 100,00 %
19.10.2019 23:14 11,3 C 10,0 C 10,0 C 99 % 1007,3 hPa 0,0 l/m 0 min 0 min 0 W/m 3,2 km/h (1 Bft) 100,00 %
19.10.2019 23:16 11,2 C 10,0 C 10,0 C 99 % 1007,2 hPa 0,0 l/m 0 min 0 min 0 W/m 3,2 km/h (1 Bft) 100,00 %
19.10.2019 23:18 11,2 C 10,0 C 10,0 C 99 % 1007,3 hPa 0,0 l/m 0 min 0 min 0 W/m 6,4 km/h (2 Bft) 97,83 %
19.10.2019 23:20 11,2 C 10,0 C 10,0 C 99 % 1007,4 hPa 0,0 l/m 0 min 0 min 0 W/m 3,2 km/h (1 Bft) 100,00 %
19.10.2019 23:22 11,2 C 10,0 C 10,0 C 99 % 1007,4 hPa 0,0 l/m 0 min 0 min 0 W/m 12,9 km/h (3 Bft) 100,00 %
19.10.2019 23:24 11,2 C 10,0 C 10,0 C 99 % 1007,4 hPa 0,0 l/m 0 min 0 min 0 W/m 3,2 km/h (1 Bft) 97,87 %
19.10.2019 23:26 11,2 C 10,0 C 10,0 C 99 % 1007,4 hPa 0,0 l/m 0 min 0 min 0 W/m 3,2 km/h (1 Bft) 97,87 %
19.10.2019 23:28 11,2 C 10,0 C 10,0 C 99 % 1007,4 hPa 0,2 l/m 0 min 0 min 0 W/m 3,2 km/h (1 Bft) 97,87 %
19.10.2019 23:30 11,2 C 10,0 C 10,0 C 99 % 1007,4 hPa 0,0 l/m 0 min 0 min 0 W/m 3,2 km/h (1 Bft) 97,83 %
19.10.2019 23:32 11,2 C 10,0 C 10,0 C 99 % 1007,4 hPa 0,0 l/m 0 min 0 min 0 W/m 0,0 km/h (0 Bft) 97,87 %
19.10.2019 23:34 11,2 C 10,0 C 10,0 C 99 % 1007,5 hPa 0,0 l/m 0 min 0 min 0 W/m 3,2 km/h (1 Bft) 95,74 %
19.10.2019 23:36 11,2 C 10,0 C 10,0 C 99 % 1007,5 hPa 0,0 l/m 0 min 0 min 0 W/m 0,0 km/h (0 Bft) 97,87 %
19.10.2019 23:38 11,2 C 10,0 C 10,0 C 99 % 1007,5 hPa 0,0 l/m 0 min 0 min 0 W/m 0,0 km/h (0 Bft) 97,87 %
19.10.2019 23:40 11,2 C 10,0 C 10,0 C 99 % 1007,4 hPa 0,0 l/m 0 min 0 min 0 W/m 0,0 km/h (0 Bft) 93,62 %
19.10.2019 23:42 11,2 C 10,0 C 9,4 C 99 % 1007,5 hPa 0,0 l/m 0 min 0 min 0 W/m 0,0 km/h (0 Bft) 97,83 %
19.10.2019 23:44 11,2 C 10,0 C 9,4 C 99 % 1007,5 hPa 0,0 l/m 0 min 0 min 0 W/m 0,0 km/h (0 Bft) 97,87 %
19.10.2019 23:46 11,2 C 10,0 C 9,4 C 99 % 1007,5 hPa 0,0 l/m 0 min 0 min 0 W/m 0,0 km/h (0 Bft) 97,87 %
19.10.2019 23:48 11,2 C 10,0 C 9,4 C 99 % 1007,5 hPa 0,0 l/m 0 min 0 min 0 W/m 0,0 km/h (0 Bft) 97,87 %
19.10.2019 23:50 11,2 C 10,0 C 10,0 C 99 % 1007,5 hPa 0,0 l/m 0 min 0 min 0 W/m 0,0 km/h (0 Bft) 97,87 %
19.10.2019 23:52 11,2 C 10,0 C 9,4 C 99 % 1007,6 hPa 0,0 l/m 0 min 0 min 0 W/m 0,0 km/h (0 Bft) 95,65 %
19.10.2019 23:54 11,2 C 10,0 C 9,4 C 99 % 1007,6 hPa 0,0 l/m 0 min 0 min 0 W/m 0,0 km/h (0 Bft) 97,87 %
19.10.2019 23:56 11,2 C 10,0 C 10,0 C 99 % 1007,6 hPa 0,0 l/m 0 min 0 min 0 W/m 0,0 km/h (0 Bft) 97,87 %
19.10.2019 23:58 11,2 C 10,0 C 9,4 C 99 % 1007,7 hPa 0,0 l/m 0 min 0 min 0 W/m 0,0 km/h (0 Bft) 97,87 %
_ Min-Zeit 02:12 01:28 00:50 00:00 13:00 - - - - 15:24 22:24
Minimum _ 10,5 C 9,4 C 9,4 C 86 % 1005,0 hPa - - - - 0,0 km/h (0 Bft) 51,22 %
_ Max-Zeit 13:02 13:00 12:04 22:14 00:04 15:44 00:00 06:26 12:00 05:00 00:20
Maximum _ 14,1 C 14,4 C 12,2 C 99 % 1008,3 hPa 0,4 l/m 0 min 2 min 181 W/m 32,2 km/h
O (5 Bft)
100,00 %
Durchschnitt _ 12,0 C 10,9 C 10,4 C 94 % 1006,1 hPa #4,2 l/m #0 min. #4:54 h 58 W/m 11,3 km/h (2 Bft) 97,35 %
© 2019 W. Hausmann